Wetterdaten: Dienstag, 09.07.2013
Datum Zeit Temp. Aussen +5cm Feuchte Auss Luftdruck Regen Sonnenschein Regendauer UV Solar Windben
09.07.2013 00:00 20,4 C 19,0 C 73 % 1027,8 hPa 0,0 l/m 0 min 0 min 0,0 UV-I 0 W/m 2,6 km/h (1 Bft)
09.07.2013 00:02 20,3 C 18,4 C 73 % 1027,8 hPa 0,0 l/m 0 min 0 min 0,0 UV-I 0 W/m 7,7 km/h (2 Bft)
09.07.2013 00:06 20,3 C 18,4 C 74 % 1027,7 hPa 0,0 l/m 0 min 0 min 0,0 UV-I 0 W/m 7,7 km/h (2 Bft)
09.07.2013 00:08 20,2 C 18,4 C 74 % 1027,8 hPa 0,0 l/m 0 min 0 min 0,0 UV-I 0 W/m 7,7 km/h (2 Bft)
09.07.2013 00:10 20,2 C 18,4 C 74 % 1027,8 hPa 0,0 l/m 0 min 0 min 0,0 UV-I 0 W/m 7,7 km/h (2 Bft)
09.07.2013 00:12 20,2 C 18,4 C 74 % 1027,8 hPa 0,0 l/m 0 min 0 min 0,0 UV-I 0 W/m 7,7 km/h (2 Bft)
09.07.2013 00:14 20,1 C 18,4 C 74 % 1027,8 hPa 0,0 l/m 0 min 0 min 0,0 UV-I 0 W/m 7,7 km/h (2 Bft)
09.07.2013 00:16 20,1 C 18,4 C 74 % 1027,7 hPa 0,0 l/m 0 min 0 min 0,0 UV-I 0 W/m 0,0 km/h (0 Bft)
09.07.2013 00:18 20,1 C 18,4 C 74 % 1027,7 hPa 0,0 l/m 0 min 0 min 0,0 UV-I 0 W/m 7,7 km/h (2 Bft)
09.07.2013 00:20 20,0 C 18,4 C 74 % 1027,8 hPa 0,0 l/m 0 min 0 min 0,0 UV-I 0 W/m 2,6 km/h (1 Bft)
09.07.2013 00:22 19,9 C 18,4 C 75 % 1027,8 hPa 0,0 l/m 0 min 0 min 0,0 UV-I 0 W/m 7,7 km/h (2 Bft)
09.07.2013 00:24 19,9 C 18,4 C 75 % 1027,8 hPa 0,0 l/m 0 min 0 min 0,0 UV-I 0 W/m 10,3 km/h (2 Bft)
09.07.2013 00:26 19,9 C 17,9 C 75 % 1027,8 hPa 0,0 l/m 0 min 0 min 0,0 UV-I 0 W/m 7,7 km/h (2 Bft)
09.07.2013 00:28 19,8 C 17,9 C 75 % 1027,8 hPa 0,0 l/m 0 min 0 min 0,0 UV-I 0 W/m 2,6 km/h (1 Bft)
09.07.2013 00:30 19,8 C 17,9 C 76 % 1027,8 hPa 0,0 l/m 0 min 0 min 0,0 UV-I 0 W/m 7,7 km/h (2 Bft)
09.07.2013 00:32 19,8 C 17,9 C 76 % 1027,8 hPa 0,0 l/m 0 min 0 min 0,0 UV-I 0 W/m 7,7 km/h (2 Bft)
09.07.2013 00:34 19,7 C 17,9 C 76 % 1027,8 hPa 0,0 l/m 0 min 0 min 0,0 UV-I 0 W/m 0,0 km/h (0 Bft)
09.07.2013 00:36 19,7 C 17,9 C 76 % 1027,9 hPa 0,0 l/m 0 min 0 min 0,0 UV-I 0 W/m 7,7 km/h (2 Bft)
09.07.2013 00:38 19,7 C 17,9 C 76 % 1027,8 hPa 0,0 l/m 0 min 0 min 0,0 UV-I 0 W/m 7,7 km/h (2 Bft)
09.07.2013 00:40 19,6 C 17,9 C 76 % 1028,0 hPa 0,0 l/m 0 min 0 min 0,0 UV-I 0 W/m 5,1 km/h (1 Bft)
09.07.2013 00:42 19,6 C 17,9 C 76 % 1027,9 hPa 0,0 l/m 0 min 0 min 0,0 UV-I 0 W/m 10,3 km/h (2 Bft)
09.07.2013 00:44 19,5 C 17,9 C 77 % 1027,9 hPa 0,0 l/m 0 min 0 min 0,0 UV-I 0 W/m 7,7 km/h (2 Bft)
09.07.2013 00:46 19,5 C 17,9 C 77 % 1028,0 hPa 0,0 l/m 0 min 0 min 0,0 UV-I 0 W/m 7,7 km/h (2 Bft)
09.07.2013 00:48 19,4 C 17,9 C 77 % 1027,9 hPa 0,0 l/m 0 min 0 min 0,0 UV-I 0 W/m 7,7 km/h (2 Bft)
09.07.2013 00:50 19,4 C 17,9 C 77 % 1028,0 hPa 0,0 l/m 0 min 0 min 0,0 UV-I 0 W/m 5,1 km/h (1 Bft)
09.07.2013 00:52 19,4 C 17,9 C 77 % 1027,9 hPa 0,0 l/m 0 min 0 min 0,0 UV-I 0 W/m 7,7 km/h (2 Bft)
09.07.2013 00:54 19,3 C 17,9 C 77 % 1027,9 hPa 0,0 l/m 0 min 0 min 0,0 UV-I 0 W/m 7,7 km/h (2 Bft)
09.07.2013 00:56 19,3 C 17,9 C 77 % 1027,8 hPa 0,0 l/m 0 min 0 min 0,0 UV-I 0 W/m 2,6 km/h (1 Bft)
09.07.2013 00:58 19,3 C 17,9 C 77 % 1027,9 hPa 0,0 l/m 0 min 0 min 0,0 UV-I 0 W/m 0,0 km/h (0 Bft)
09.07.2013 01:00 19,3 C 17,9 C 78 % 1027,8 hPa 0,0 l/m 0 min 0 min 0,0 UV-I 0 W/m 2,6 km/h (1 Bft)
09.07.2013 01:02 19,2 C 17,3 C 78 % 1027,8 hPa 0,0 l/m 0 min 0 min 0,0 UV-I 0 W/m 0,0 km/h (0 Bft)
09.07.2013 01:06 19,2 C 17,3 C 78 % 1027,8 hPa 0,0 l/m 0 min 0 min 0,0 UV-I 0 W/m 2,6 km/h (1 Bft)
09.07.2013 01:08 19,1 C 17,3 C 78 % 1027,8 hPa 0,0 l/m 0 min 0 min 0,0 UV-I 0 W/m 5,1 km/h (1 Bft)
09.07.2013 01:10 19,1 C 17,3 C 78 % 1027,9 hPa 0,0 l/m 0 min 0 min 0,0 UV-I 0 W/m 2,6 km/h (1 Bft)
09.07.2013 01:12 19,1 C 17,3 C 79 % 1027,9 hPa 0,0 l/m 0 min 0 min 0,0 UV-I 0 W/m 2,6 km/h (1 Bft)
09.07.2013 01:14 19,1 C 17,3 C 79 % 1027,8 hPa 0,0 l/m 0 min 0 min 0,0 UV-I 0 W/m 0,0 km/h (0 Bft)
09.07.2013 01:16 19,0 C 17,3 C 79 % 1027,8 hPa 0,0 l/m 0 min 0 min 0,0 UV-I 0 W/m 2,6 km/h (1 Bft)
09.07.2013 01:18 18,9 C 17,3 C 79 % 1027,8 hPa 0,0 l/m 0 min 0 min 0,0 UV-I 0 W/m 0,0 km/h (0 Bft)
09.07.2013 01:20 18,9 C 17,3 C 79 % 1027,8 hPa 0,0 l/m 0 min 0 min 0,0 UV-I 0 W/m 2,6 km/h (1 Bft)
09.07.2013 01:22 18,9 C 17,3 C 79 % 1027,9 hPa 0,0 l/m 0 min 0 min 0,0 UV-I 0 W/m 0,0 km/h (0 Bft)
09.07.2013 01:24 18,8 C 17,3 C 79 % 1027,8 hPa 0,0 l/m 0 min 0 min 0,0 UV-I 0 W/m 0,0 km/h (0 Bft)
09.07.2013 01:26 18,8 C 17,3 C 79 % 1027,9 hPa 0,0 l/m 0 min 0 min 0,0 UV-I 0 W/m 0,0 km/h (0 Bft)
09.07.2013 01:28 18,8 C 17,3 C 79 % 1027,8 hPa 0,0 l/m 0 min 0 min 0,0 UV-I 0 W/m 2,6 km/h (1 Bft)
09.07.2013 01:30 18,8 C 17,3 C 80 % 1027,8 hPa 0,0 l/m 0 min 0 min 0,0 UV-I 0 W/m 0,0 km/h (0 Bft)
09.07.2013 01:32 18,7 C 17,3 C 80 % 1027,8 hPa 0,0 l/m 0 min 0 min 0,0 UV-I 0 W/m 0,0 km/h (0 Bft)
09.07.2013 01:34 18,7 C 17,3 C 80 % 1027,9 hPa 0,0 l/m 0 min 0 min 0,0 UV-I 0 W/m 0,0 km/h (0 Bft)
09.07.2013 01:36 18,7 C 17,3 C 80 % 1027,8 hPa 0,0 l/m 0 min 0 min 0,0 UV-I 0 W/m 2,6 km/h (1 Bft)
09.07.2013 01:38 18,6 C 16,8 C 80 % 1027,8 hPa 0,0 l/m 0 min 0 min 0,0 UV-I 0 W/m 2,6 km/h (1 Bft)
09.07.2013 01:40 18,6 C 16,8 C 80 % 1027,7 hPa 0,0 l/m 0 min 0 min 0,0 UV-I 0 W/m 0,0 km/h (0 Bft)
09.07.2013 01:42 18,6 C 16,8 C 80 % 1027,7 hPa 0,0 l/m 0 min 0 min 0,0 UV-I 0 W/m 2,6 km/h (1 Bft)
09.07.2013 01:44 18,5 C 16,8 C 80 % 1027,8 hPa 0,0 l/m 0 min 0 min 0,0 UV-I 0 W/m 0,0 km/h (0 Bft)
09.07.2013 01:46 18,5 C 16,8 C 80 % 1027,8 hPa 0,0 l/m 0 min 0 min 0,0 UV-I 0 W/m 0,0 km/h (0 Bft)
09.07.2013 01:48 18,4 C 16,8 C 80 % 1027,8 hPa 0,0 l/m 0 min 0 min 0,0 UV-I 0 W/m 0,0 km/h (0 Bft)
09.07.2013 01:50 18,4 C 16,8 C 81 % 1027,7 hPa 0,0 l/m 0 min 0 min 0,0 UV-I 0 W/m 0,0 km/h (0 Bft)
09.07.2013 01:52 18,4 C 16,8 C 81 % 1027,8 hPa 0,0 l/m 0 min 0 min 0,0 UV-I 0 W/m 0,0 km/h (0 Bft)
09.07.2013 01:54 18,4 C 16,8 C 81 % 1027,7 hPa 0,0 l/m 0 min 0 min 0,0 UV-I 0 W/m 2,6 km/h (1 Bft)
09.07.2013 01:56 18,3 C 16,8 C 81 % 1027,7 hPa 0,0 l/m 0 min 0 min 0,0 UV-I 0 W/m 0,0 km/h (0 Bft)
09.07.2013 01:58 18,3 C 16,8 C 81 % 1027,8 hPa 0,0 l/m 0 min 0 min 0,0 UV-I 0 W/m 0,0 km/h (0 Bft)
09.07.2013 02:00 18,3 C 16,8 C 81 % 1027,7 hPa 0,0 l/m 0 min 0 min 0,0 UV-I 0 W/m 0,0 km/h (0 Bft)
09.07.2013 02:02 18,3 C 16,8 C 81 % 1027,7 hPa 0,0 l/m 0 min 0 min 0,0 UV-I 0 W/m 0,0 km/h (0 Bft)
09.07.2013 02:06 18,2 C 16,8 C 81 % 1027,8 hPa 0,0 l/m 0 min 0 min 0,0 UV-I 0 W/m 2,6 km/h (1 Bft)
09.07.2013 02:08 18,2 C 16,8 C 81 % 1027,7 hPa 0,0 l/m 0 min 0 min 0,0 UV-I 0 W/m 0,0 km/h (0 Bft)
09.07.2013 02:10 18,2 C 16,8 C 81 % 1027,7 hPa 0,0 l/m 0 min 0 min 0,0 UV-I 0 W/m 2,6 km/h (1 Bft)
09.07.2013 02:12 18,2 C 16,8 C 81 % 1027,7 hPa 0,0 l/m 0 min 0 min 0,0 UV-I 0 W/m 0,0 km/h (0 Bft)
09.07.2013 02:14 18,2 C 16,8 C 81 % 1027,7 hPa 0,0 l/m 0 min 0 min 0,0 UV-I 0 W/m 2,6 km/h (1 Bft)
09.07.2013 02:16 18,1 C 16,8 C 81 % 1027,7 hPa 0,0 l/m 0 min 0 min 0,0 UV-I 0 W/m 2,6 km/h (1 Bft)
09.07.2013 02:18 18,1 C 16,8 C 81 % 1027,7 hPa 0,0 l/m 0 min 0 min 0,0 UV-I 0 W/m 2,6 km/h (1 Bft)
09.07.2013 02:20 18,1 C 16,2 C 81 % 1027,7 hPa 0,0 l/m 0 min 0 min 0,0 UV-I 0 W/m 2,6 km/h (1 Bft)
09.07.2013 02:22 18,0 C 16,2 C 81 % 1027,7 hPa 0,0 l/m 0 min 0 min 0,0 UV-I 0 W/m 2,6 km/h (1 Bft)
09.07.2013 02:24 18,0 C 16,2 C 81 % 1027,7 hPa 0,0 l/m 0 min 0 min 0,0 UV-I 0 W/m 0,0 km/h (0 Bft)
09.07.2013 02:26 17,9 C 16,2 C 82 % 1027,7 hPa 0,0 l/m 0 min 0 min 0,0 UV-I 0 W/m 0,0 km/h (0 Bft)
09.07.2013 02:28 17,9 C 16,2 C 82 % 1027,7 hPa 0,0 l/m 0 min 0 min 0,0 UV-I 0 W/m 2,6 km/h (1 Bft)
09.07.2013 02:30 17,9 C 16,2 C 82 % 1027,7 hPa 0,0 l/m 0 min 0 min 0,0 UV-I 0 W/m 0,0 km/h (0 Bft)
09.07.2013 02:32 17,9 C 16,2 C 82 % 1027,7 hPa 0,0 l/m 0 min 0 min 0,0 UV-I 0 W/m 0,0 km/h (0 Bft)
09.07.2013 02:34 17,9 C 16,2 C 82 % 1027,7 hPa 0,0 l/m 0 min 0 min 0,0 UV-I 0 W/m 0,0 km/h (0 Bft)
09.07.2013 02:36 17,8 C 15,7 C 82 % 1027,6 hPa 0,0 l/m 0 min 0 min 0,0 UV-I 0 W/m 0,0 km/h (0 Bft)
09.07.2013 02:38 17,8 C 15,7 C 82 % 1027,7 hPa 0,0 l/m 0 min 0 min 0,0 UV-I 0 W/m 0,0 km/h (0 Bft)
09.07.2013 02:40 17,8 C 15,7 C 82 % 1027,6 hPa 0,0 l/m 0 min 0 min 0,0 UV-I 0 W/m 0,0 km/h (0 Bft)
09.07.2013 02:42 17,8 C 15,7 C 82 % 1027,6 hPa 0,0 l/m 0 min 0 min 0,0 UV-I 0 W/m 2,6 km/h (1 Bft)
09.07.2013 02:44 17,7 C 15,7 C 82 % 1027,6 hPa 0,0 l/m 0 min 0 min 0,0 UV-I 0 W/m 0,0 km/h (0 Bft)
09.07.2013 02:46 17,7 C 15,7 C 82 % 1027,6 hPa 0,0 l/m 0 min 0 min 0,0 UV-I 0 W/m 0,0 km/h (0 Bft)
09.07.2013 02:48 17,7 C 15,7 C 82 % 1027,6 hPa 0,0 l/m 0 min 0 min 0,0 UV-I 0 W/m 0,0 km/h (0 Bft)
09.07.2013 02:50 17,6 C 15,7 C 82 % 1027,6 hPa 0,0 l/m 0 min 0 min 0,0 UV-I 0 W/m 0,0 km/h (0 Bft)
09.07.2013 02:52 17,6 C 15,7 C 82 % 1027,5 hPa 0,0 l/m 0 min 0 min 0,0 UV-I 0 W/m 0,0 km/h (0 Bft)
09.07.2013 02:54 17,6 C 15,7 C 82 % 1027,5 hPa 0,0 l/m 0 min 0 min 0,0 UV-I 0 W/m 0,0 km/h (0 Bft)
09.07.2013 02:56 17,6 C 15,7 C 82 % 1027,5 hPa 0,0 l/m 0 min 0 min 0,0 UV-I 0 W/m 0,0 km/h (0 Bft)
09.07.2013 02:58 17,5 C 15,7 C 82 % 1027,5 hPa 0,0 l/m 0 min 0 min 0,0 UV-I 0 W/m 2,6 km/h (1 Bft)
09.07.2013 03:00 17,4 C 15,7 C 82 % 1027,5 hPa 0,0 l/m 0 min 0 min 0,0 UV-I 0 W/m 0,0 km/h (0 Bft)
09.07.2013 03:02 17,4 C 15,7 C 82 % 1027,5 hPa 0,0 l/m 0 min 0 min 0,0 UV-I 0 W/m 0,0 km/h (0 Bft)
09.07.2013 03:06 17,4 C 15,7 C 82 % 1027,5 hPa 0,0 l/m 0 min 0 min 0,0 UV-I 0 W/m 0,0 km/h (0 Bft)
09.07.2013 03:08 17,3 C 15,7 C 82 % 1027,5 hPa 0,0 l/m 0 min 0 min 0,0 UV-I 0 W/m 0,0 km/h (0 Bft)
09.07.2013 03:10 17,3 C 15,1 C 82 % 1027,5 hPa 0,0 l/m 0 min 0 min 0,0 UV-I 0 W/m 0,0 km/h (0 Bft)
09.07.2013 03:12 17,3 C 15,1 C 82 % 1027,5 hPa 0,0 l/m 0 min 0 min 0,0 UV-I 0 W/m 0,0 km/h (0 Bft)
09.07.2013 03:14 17,2 C 15,1 C 82 % 1027,4 hPa 0,0 l/m 0 min 0 min 0,0 UV-I 0 W/m 0,0 km/h (0 Bft)
09.07.2013 03:16 17,2 C 15,1 C 82 % 1027,5 hPa 0,0 l/m 0 min 0 min 0,0 UV-I 0 W/m 0,0 km/h (0 Bft)
09.07.2013 03:18 17,2 C 15,1 C 82 % 1027,4 hPa 0,0 l/m 0 min 0 min 0,0 UV-I 0 W/m 0,0 km/h (0 Bft)
09.07.2013 03:20 17,2 C 15,1 C 82 % 1027,4 hPa 0,0 l/m 0 min 0 min 0,0 UV-I 0 W/m 0,0 km/h (0 Bft)
09.07.2013 03:22 17,1 C 15,1 C 82 % 1027,4 hPa 0,0 l/m 0 min 0 min 0,0 UV-I 0 W/m 2,6 km/h (1 Bft)
09.07.2013 03:24 17,1 C 15,1 C 82 % 1027,4 hPa 0,0 l/m 0 min 0 min 0,0 UV-I 0 W/m 0,0 km/h (0 Bft)
09.07.2013 03:26 17,0 C 15,1 C 82 % 1027,4 hPa 0,0 l/m 0 min 0 min 0,0 UV-I 0 W/m 0,0 km/h (0 Bft)
09.07.2013 03:28 16,9 C 15,1 C 82 % 1027,4 hPa 0,0 l/m 0 min 0 min 0,0 UV-I 0 W/m 2,6 km/h (1 Bft)
09.07.2013 03:30 16,9 C 15,1 C 82 % 1027,4 hPa 0,0 l/m 0 min 0 min 0,0 UV-I 0 W/m 0,0 km/h (0 Bft)
09.07.2013 03:32 16,9 C 15,1 C 82 % 1027,4 hPa 0,0 l/m 0 min 0 min 0,0 UV-I 0 W/m 0,0 km/h (0 Bft)
09.07.2013 03:34 16,8 C 15,1 C 82 % 1027,4 hPa 0,0 l/m 0 min 0 min 0,0 UV-I 0 W/m 0,0 km/h (0 Bft)
09.07.2013 03:36 16,8 C 15,1 C 82 % 1027,4 hPa 0,0 l/m 0 min 0 min 0,0 UV-I 0 W/m 0,0 km/h (0 Bft)
09.07.2013 03:38 16,8 C 15,1 C 82 % 1027,4 hPa 0,0 l/m 0 min 0 min 0,0 UV-I 0 W/m 0,0 km/h (0 Bft)
09.07.2013 03:40 16,8 C 15,1 C 82 % 1027,5 hPa 0,0 l/m 0 min 0 min 0,0 UV-I 0 W/m 0,0 km/h (0 Bft)
09.07.2013 03:42 16,7 C 15,1 C 82 % 1027,4 hPa 0,0 l/m 0 min 0 min 0,0 UV-I 0 W/m 2,6 km/h (1 Bft)
09.07.2013 03:44 16,7 C 15,1 C 82 % 1027,4 hPa 0,0 l/m 0 min 0 min 0,0 UV-I 0 W/m 0,0 km/h (0 Bft)
09.07.2013 03:46 16,7 C 15,1 C 82 % 1027,4 hPa 0,0 l/m 0 min 0 min 0,0 UV-I 0 W/m 0,0 km/h (0 Bft)
09.07.2013 03:48 16,7 C 15,1 C 82 % 1027,4 hPa 0,0 l/m 0 min 0 min 0,0 UV-I 0 W/m 0,0 km/h (0 Bft)
09.07.2013 03:50 16,6 C 15,1 C 82 % 1027,4 hPa 0,0 l/m 0 min 0 min 0,0 UV-I 0 W/m 0,0 km/h (0 Bft)
09.07.2013 03:52 16,6 C 14,6 C 82 % 1027,4 hPa 0,0 l/m 0 min 0 min 0,0 UV-I 0 W/m 2,6 km/h (1 Bft)
09.07.2013 03:54 16,6 C 14,6 C 82 % 1027,4 hPa 0,0 l/m 0 min 0 min 0,0 UV-I 0 W/m 0,0 km/h (0 Bft)
09.07.2013 03:56 16,5 C 14,6 C 82 % 1027,4 hPa 0,0 l/m 0 min 0 min 0,0 UV-I 0 W/m 0,0 km/h (0 Bft)
09.07.2013 03:58 16,4 C 14,6 C 82 % 1027,4 hPa 0,0 l/m 0 min 0 min 0,0 UV-I 0 W/m 0,0 km/h (0 Bft)
09.07.2013 04:00 16,4 C 14,6 C 81 % 1027,4 hPa 0,0 l/m 0 min 0 min 0,0 UV-I 0 W/m 0,0 km/h (0 Bft)
09.07.2013 04:05 16,3 C 14,6 C 81 % 1027,3 hPa 0,0 l/m 0 min 0 min 0,0 UV-I 0 W/m 2,6 km/h (1 Bft)
09.07.2013 04:06 16,3 C 14,6 C 80 % 1027,3 hPa 0,0 l/m 0 min 0 min 0,0 UV-I 0 W/m 2,6 km/h (1 Bft)
09.07.2013 04:08 16,2 C 14,6 C 80 % 1027,3 hPa 0,0 l/m 0 min 0 min 0,0 UV-I 0 W/m 0,0 km/h (0 Bft)
09.07.2013 04:10 16,2 C 14,6 C 80 % 1027,3 hPa 0,0 l/m 0 min 0 min 0,0 UV-I 0 W/m 0,0 km/h (0 Bft)
09.07.2013 04:12 16,1 C 14,6 C 79 % 1027,3 hPa 0,0 l/m 0 min 0 min 0,0 UV-I 0 W/m 0,0 km/h (0 Bft)
09.07.2013 04:14 16,1 C 14,6 C 79 % 1027,3 hPa 0,0 l/m 0 min 0 min 0,0 UV-I 0 W/m 0,0 km/h (0 Bft)
09.07.2013 04:16 16,0 C 14,6 C 78 % 1027,2 hPa 0,0 l/m 0 min 0 min 0,0 UV-I 0 W/m 0,0 km/h (0 Bft)
09.07.2013 04:18 16,0 C 14,6 C 77 % 1027,3 hPa 0,0 l/m 0 min 0 min 0,0 UV-I 0 W/m 2,6 km/h (1 Bft)
09.07.2013 04:20 15,9 C 14,6 C 77 % 1027,2 hPa 0,0 l/m 0 min 0 min 0,0 UV-I 0 W/m 0,0 km/h (0 Bft)
09.07.2013 04:22 15,9 C 14,6 C 77 % 1027,2 hPa 0,0 l/m 0 min 0 min 0,0 UV-I 0 W/m 0,0 km/h (0 Bft)
09.07.2013 04:24 15,8 C 14,6 C 77 % 1027,2 hPa 0,0 l/m 0 min 0 min 0,0 UV-I 0 W/m 0,0 km/h (0 Bft)
09.07.2013 04:26 15,8 C 14,0 C 77 % 1027,2 hPa 0,0 l/m 0 min 0 min 0,0 UV-I 0 W/m 0,0 km/h (0 Bft)
09.07.2013 04:28 15,8 C 14,0 C 77 % 1027,2 hPa 0,0 l/m 0 min 0 min 0,0 UV-I 0 W/m 0,0 km/h (0 Bft)
09.07.2013 04:30 15,8 C 14,0 C 76 % 1027,2 hPa 0,0 l/m 0 min 0 min 0,0 UV-I 0 W/m 0,0 km/h (0 Bft)
09.07.2013 04:32 15,7 C 14,0 C 76 % 1027,2 hPa 0,0 l/m 0 min 0 min 0,0 UV-I 0 W/m 0,0 km/h (0 Bft)
09.07.2013 04:34 15,7 C 14,0 C 76 % 1027,2 hPa 0,0 l/m 0 min 0 min 0,0 UV-I 0 W/m 2,6 km/h (1 Bft)
09.07.2013 04:36 15,7 C 14,0 C 76 % 1027,2 hPa 0,0 l/m 0 min 0 min 0,0 UV-I 0 W/m 0,0 km/h (0 Bft)
09.07.2013 04:38 15,7 C 14,0 C 76 % 1027,2 hPa 0,0 l/m 0 min 0 min 0,0 UV-I 0 W/m 2,6 km/h (1 Bft)
09.07.2013 04:40 15,6 C 14,0 C 75 % 1027,1 hPa 0,0 l/m 0 min 0 min 0,0 UV-I 0 W/m 0,0 km/h (0 Bft)
09.07.2013 04:42 15,6 C 14,0 C 75 % 1027,1 hPa 0,0 l/m 0 min 0 min 0,0 UV-I 0 W/m 0,0 km/h (0 Bft)
09.07.2013 04:44 15,6 C 14,0 C 75 % 1027,1 hPa 0,0 l/m 0 min 0 min 0,0 UV-I 0 W/m 0,0 km/h (0 Bft)
09.07.2013 04:46 15,5 C 14,0 C 75 % 1027,1 hPa 0,0 l/m 0 min 0 min 0,0 UV-I 0 W/m 0,0 km/h (0 Bft)
09.07.2013 04:48 15,5 C 14,0 C 75 % 1027,1 hPa 0,0 l/m 0 min 0 min 0,0 UV-I 0 W/m 0,0 km/h (0 Bft)
09.07.2013 04:50 15,4 C 13,4 C 75 % 1027,1 hPa 0,0 l/m 0 min 0 min 0,0 UV-I 0 W/m 0,0 km/h (0 Bft)
09.07.2013 04:52 15,4 C 14,0 C 75 % 1027,1 hPa 0,0 l/m 0 min 0 min 0,0 UV-I 0 W/m 0,0 km/h (0 Bft)
09.07.2013 04:54 15,4 C 13,4 C 75 % 1027,1 hPa 0,0 l/m 0 min 0 min 0,0 UV-I 0 W/m 0,0 km/h (0 Bft)
09.07.2013 04:56 15,4 C 13,4 C 75 % 1027,2 hPa 0,0 l/m 0 min 0 min 0,0 UV-I 0 W/m 0,0 km/h (0 Bft)
09.07.2013 04:58 15,3 C 13,4 C 75 % 1027,1 hPa 0,0 l/m 0 min 0 min 0,0 UV-I 0 W/m 0,0 km/h (0 Bft)
09.07.2013 05:00 15,3 C 13,4 C 75 % 1027,1 hPa 0,0 l/m 0 min 0 min 0,0 UV-I 0 W/m 0,0 km/h (0 Bft)
09.07.2013 05:02 15,3 C 13,4 C 76 % 1027,1 hPa 0,0 l/m 0 min 0 min 0,0 UV-I 0 W/m 0,0 km/h (0 Bft)
09.07.2013 05:06 15,3 C 13,4 C 76 % 1027,1 hPa 0,0 l/m 0 min 0 min 0,0 UV-I 0 W/m 0,0 km/h (0 Bft)
09.07.2013 05:08 15,2 C 13,4 C 76 % 1027,2 hPa 0,0 l/m 0 min 0 min 0,0 UV-I 0 W/m 0,0 km/h (0 Bft)
09.07.2013 05:10 15,2 C 13,4 C 76 % 1027,2 hPa 0,0 l/m 0 min 0 min 0,0 UV-I 0 W/m 0,0 km/h (0 Bft)
09.07.2013 05:12 15,2 C 13,4 C 77 % 1027,2 hPa 0,0 l/m 0 min 0 min 0,0 UV-I 0 W/m 0,0 km/h (0 Bft)
09.07.2013 05:14 15,2 C 13,4 C 77 % 1027,2 hPa 0,0 l/m 0 min 0 min 0,0 UV-I 0 W/m 0,0 km/h (0 Bft)
09.07.2013 05:16 15,1 C 13,4 C 77 % 1027,1 hPa 0,0 l/m 0 min 0 min 0,0 UV-I 0 W/m 0,0 km/h (0 Bft)
09.07.2013 05:18 15,1 C 13,4 C 78 % 1027,1 hPa 0,0 l/m 0 min 0 min 0,0 UV-I 0 W/m 0,0 km/h (0 Bft)
09.07.2013 05:20 15,1 C 13,4 C 78 % 1027,1 hPa 0,0 l/m 0 min 0 min 0,0 UV-I 0 W/m 0,0 km/h (0 Bft)
09.07.2013 05:22 15,1 C 13,4 C 78 % 1027,1 hPa 0,0 l/m 0 min 0 min 0,0 UV-I 0 W/m 0,0 km/h (0 Bft)
09.07.2013 05:24 15,0 C 13,4 C 79 % 1027,1 hPa 0,0 l/m 0 min 0 min 0,0 UV-I 0 W/m 0,0 km/h (0 Bft)
09.07.2013 05:26 15,0 C 13,4 C 79 % 1027,0 hPa 0,0 l/m 0 min 0 min 0,0 UV-I 0 W/m 0,0 km/h (0 Bft)
09.07.2013 05:28 15,0 C 13,4 C 79 % 1027,0 hPa 0,0 l/m 0 min 0 min 0,0 UV-I 0 W/m 0,0 km/h (0 Bft)
09.07.2013 05:30 14,9 C 12,9 C 79 % 1027,0 hPa 0,0 l/m 0 min 0 min 0,0 UV-I 5 W/m 2,6 km/h (1 Bft)
09.07.2013 05:32 14,9 C 12,9 C 79 % 1027,1 hPa 0,0 l/m 0 min 0 min 0,0 UV-I 5 W/m 0,0 km/h (0 Bft)
09.07.2013 05:34 14,9 C 13,4 C 79 % 1027,0 hPa 0,0 l/m 0 min 0 min 0,0 UV-I 5 W/m 0,0 km/h (0 Bft)
09.07.2013 05:36 14,8 C 13,4 C 79 % 1027,0 hPa 0,0 l/m 0 min 0 min 0,0 UV-I 5 W/m 0,0 km/h (0 Bft)
09.07.2013 05:38 14,8 C 13,4 C 79 % 1027,0 hPa 0,0 l/m 0 min 0 min 0,0 UV-I 7 W/m 0,0 km/h (0 Bft)
09.07.2013 05:40 14,8 C 13,4 C 79 % 1026,9 hPa 0,0 l/m 0 min 0 min 0,0 UV-I 7 W/m 0,0 km/h (0 Bft)
09.07.2013 05:42 14,8 C 13,4 C 80 % 1027,0 hPa 0,0 l/m 0 min 0 min 0,0 UV-I 9 W/m 0,0 km/h (0 Bft)
09.07.2013 05:44 14,7 C 13,4 C 80 % 1026,9 hPa 0,0 l/m 0 min 0 min 0,0 UV-I 9 W/m 0,0 km/h (0 Bft)
09.07.2013 05:46 14,7 C 13,4 C 80 % 1026,9 hPa 0,0 l/m 0 min 0 min 0,0 UV-I 11 W/m 2,6 km/h (1 Bft)
09.07.2013 05:48 14,7 C 13,4 C 80 % 1026,9 hPa 0,0 l/m 0 min 0 min 0,0 UV-I 11 W/m 0,0 km/h (0 Bft)
09.07.2013 05:50 14,7 C 13,4 C 80 % 1026,9 hPa 0,0 l/m 0 min 0 min 0,0 UV-I 12 W/m 0,0 km/h (0 Bft)
09.07.2013 05:52 14,6 C 13,4 C 80 % 1027,0 hPa 0,0 l/m 0 min 0 min 0,0 UV-I 12 W/m 0,0 km/h (0 Bft)
09.07.2013 05:54 14,6 C 13,4 C 80 % 1026,9 hPa 0,0 l/m 0 min 0 min 0,0 UV-I 14 W/m 0,0 km/h (0 Bft)
09.07.2013 05:56 14,6 C 13,4 C 80 % 1026,9 hPa 0,0 l/m 0 min 0 min 0,0 UV-I 16 W/m 0,0 km/h (0 Bft)
09.07.2013 05:58 14,6 C 13,4 C 80 % 1026,9 hPa 0,0 l/m 0 min 0 min 0,0 UV-I 16 W/m 0,0 km/h (0 Bft)
09.07.2013 06:00 14,6 C 13,4 C 80 % 1026,9 hPa 0,0 l/m 0 min 0 min 0,0 UV-I 18 W/m 0,0 km/h (0 Bft)
09.07.2013 06:02 14,5 C 13,4 C 80 % 1026,9 hPa 0,0 l/m 0 min 0 min 0,0 UV-I 19 W/m 0,0 km/h (0 Bft)
09.07.2013 06:06 14,4 C 13,4 C 80 % 1026,9 hPa 0,0 l/m 0 min 0 min 0,0 UV-I 21 W/m 0,0 km/h (0 Bft)
09.07.2013 06:08 14,4 C 12,9 C 80 % 1026,9 hPa 0,0 l/m 0 min 0 min 0,0 UV-I 23 W/m 0,0 km/h (0 Bft)
09.07.2013 06:10 14,4 C 12,9 C 80 % 1026,9 hPa 0,0 l/m 0 min 0 min 0,0 UV-I 23 W/m 0,0 km/h (0 Bft)
09.07.2013 06:12 14,4 C 12,9 C 80 % 1026,9 hPa 0,0 l/m 0 min 0 min 0,0 UV-I 25 W/m 0,0 km/h (0 Bft)
09.07.2013 06:14 14,4 C 12,9 C 80 % 1026,9 hPa 0,0 l/m 0 min 0 min 0,0 UV-I 26 W/m 2,6 km/h (1 Bft)
09.07.2013 06:16 14,4 C 13,4 C 80 % 1026,9 hPa 0,0 l/m 0 min 0 min 0,0 UV-I 26 W/m 0,0 km/h (0 Bft)
09.07.2013 06:18 14,4 C 13,4 C 80 % 1026,9 hPa 0,0 l/m 0 min 0 min 0,0 UV-I 28 W/m 0,0 km/h (0 Bft)
09.07.2013 06:20 14,3 C 13,4 C 80 % 1026,9 hPa 0,0 l/m 0 min 0 min 0,0 UV-I 30 W/m 0,0 km/h (0 Bft)
09.07.2013 06:22 14,3 C 13,4 C 80 % 1026,9 hPa 0,0 l/m 0 min 0 min 0,0 UV-I 30 W/m 2,6 km/h (1 Bft)
09.07.2013 06:24 14,3 C 12,9 C 80 % 1026,9 hPa 0,0 l/m 0 min 0 min 0,0 UV-I 32 W/m 0,0 km/h (0 Bft)
09.07.2013 06:26 14,3 C 12,9 C 80 % 1027,0 hPa 0,0 l/m 0 min 0 min 0,0 UV-I 33 W/m 0,0 km/h (0 Bft)
09.07.2013 06:28 14,3 C 12,9 C 80 % 1026,9 hPa 0,0 l/m 0 min 0 min 0,0 UV-I 33 W/m 0,0 km/h (0 Bft)
09.07.2013 06:30 14,3 C 13,4 C 80 % 1026,9 hPa 0,0 l/m 0 min 0 min 0,0 UV-I 35 W/m 0,0 km/h (0 Bft)
09.07.2013 06:32 14,3 C 13,4 C 80 % 1027,0 hPa 0,0 l/m 0 min 0 min 0,0 UV-I 37 W/m 0,0 km/h (0 Bft)
09.07.2013 06:34 14,3 C 13,4 C 80 % 1026,9 hPa 0,0 l/m 0 min 0 min 0,0 UV-I 39 W/m 0,0 km/h (0 Bft)
09.07.2013 06:36 14,3 C 13,4 C 80 % 1026,9 hPa 0,0 l/m 0 min 0 min 0,0 UV-I 39 W/m 7,7 km/h (2 Bft)
09.07.2013 06:38 14,3 C 13,4 C 80 % 1026,9 hPa 0,0 l/m 0 min 0 min 0,0 UV-I 40 W/m 0,0 km/h (0 Bft)
09.07.2013 06:40 14,3 C 13,4 C 80 % 1026,9 hPa 0,0 l/m 0 min 0 min 0,0 UV-I 42 W/m 7,7 km/h (2 Bft)
09.07.2013 06:42 14,3 C 13,4 C 80 % 1026,9 hPa 0,0 l/m 0 min 0 min 0,0 UV-I 42 W/m 2,6 km/h (1 Bft)
09.07.2013 06:44 14,3 C 13,4 C 81 % 1026,9 hPa 0,0 l/m 0 min 0 min 0,0 UV-I 44 W/m 0,0 km/h (0 Bft)
09.07.2013 06:46 14,3 C 13,4 C 81 % 1026,8 hPa 0,0 l/m 0 min 0 min 0,0 UV-I 46 W/m 2,6 km/h (1 Bft)
09.07.2013 06:48 14,3 C 13,4 C 81 % 1026,9 hPa 0,0 l/m 0 min 0 min 0,0 UV-I 46 W/m 2,6 km/h (1 Bft)
09.07.2013 06:50 14,3 C 13,4 C 81 % 1026,8 hPa 0,0 l/m 0 min 0 min 0,0 UV-I 47 W/m 0,0 km/h (0 Bft)
09.07.2013 06:52 14,3 C 13,4 C 81 % 1026,8 hPa 0,0 l/m 0 min 0 min 0,0 UV-I 49 W/m 0,0 km/h (0 Bft)
09.07.2013 06:54 14,3 C 13,4 C 81 % 1026,8 hPa 0,0 l/m 0 min 0 min 0,0 UV-I 49 W/m 2,6 km/h (1 Bft)
09.07.2013 06:56 14,3 C 13,4 C 81 % 1026,8 hPa 0,0 l/m 0 min 0 min 0,0 UV-I 51 W/m 0,0 km/h (0 Bft)
09.07.2013 06:58 14,3 C 13,4 C 81 % 1026,8 hPa 0,0 l/m 0 min 0 min 0,0 UV-I 51 W/m 0,0 km/h (0 Bft)
09.07.2013 07:00 14,3 C 13,4 C 81 % 1026,8 hPa 0,0 l/m 0 min 0 min 0,0 UV-I 53 W/m 0,0 km/h (0 Bft)
09.07.2013 07:02 14,3 C 13,4 C 81 % 1026,8 hPa 0,0 l/m 0 min 0 min 0,0 UV-I 54 W/m 2,6 km/h (1 Bft)
09.07.2013 07:06 14,3 C 13,4 C 81 % 1026,8 hPa 0,0 l/m 0 min 0 min 0,0 UV-I 56 W/m 2,6 km/h (1 Bft)
09.07.2013 07:08 14,3 C 14,0 C 81 % 1026,8 hPa 0,0 l/m 0 min 0 min 0,0 UV-I 58 W/m 7,7 km/h (2 Bft)
09.07.2013 07:10 14,3 C 14,0 C 81 % 1026,9 hPa 0,0 l/m 0 min 0 min 0,0 UV-I 58 W/m 5,1 km/h (1 Bft)
09.07.2013 07:12 14,4 C 14,0 C 81 % 1026,8 hPa 0,0 l/m 0 min 0 min 0,0 UV-I 60 W/m 0,0 km/h (0 Bft)
09.07.2013 07:14 14,4 C 14,0 C 81 % 1026,8 hPa 0,0 l/m 0 min 0 min 0,0 UV-I 60 W/m 0,0 km/h (0 Bft)
09.07.2013 07:16 14,4 C 14,0 C 81 % 1026,7 hPa 0,0 l/m 0 min 0 min 0,0 UV-I 62 W/m 0,0 km/h (0 Bft)
09.07.2013 07:18 14,4 C 14,0 C 81 % 1026,8 hPa 0,0 l/m 0 min 0 min 0,0 UV-I 62 W/m 7,7 km/h (2 Bft)
09.07.2013 07:20 14,4 C 14,0 C 81 % 1026,8 hPa 0,0 l/m 0 min 0 min 0,0 UV-I 63 W/m 5,1 km/h (1 Bft)
09.07.2013 07:22 14,5 C 14,0 C 81 % 1026,8 hPa 0,0 l/m 0 min 0 min 0,0 UV-I 65 W/m 10,3 km/h (2 Bft)
09.07.2013 07:24 14,5 C 14,0 C 81 % 1026,8 hPa 0,0 l/m 0 min 0 min 0,0 UV-I 65 W/m 7,7 km/h (2 Bft)
09.07.2013 07:26 14,6 C 14,0 C 81 % 1026,7 hPa 0,0 l/m 0 min 0 min 0,0 UV-I 67 W/m 10,3 km/h (2 Bft)
09.07.2013 07:28 14,6 C 14,0 C 80 % 1026,8 hPa 0,0 l/m 0 min 0 min 0,0 UV-I 67 W/m 7,7 km/h (2 Bft)
09.07.2013 07:30 14,6 C 14,0 C 80 % 1026,8 hPa 0,0 l/m 0 min 0 min 0,0 UV-I 69 W/m 12,9 km/h (3 Bft)
09.07.2013 07:32 14,7 C 14,6 C 80 % 1026,8 hPa 0,0 l/m 0 min 0 min 0,0 UV-I 69 W/m 10,3 km/h (2 Bft)
09.07.2013 07:34 14,7 C 14,6 C 80 % 1026,7 hPa 0,0 l/m 0 min 0 min 0,0 UV-I 70 W/m 2,6 km/h (1 Bft)
09.07.2013 07:36 14,7 C 14,6 C 80 % 1026,7 hPa 0,0 l/m 0 min 0 min 0,0 UV-I 70 W/m 10,3 km/h (2 Bft)
09.07.2013 07:38 14,8 C 14,6 C 80 % 1026,7 hPa 0,0 l/m 0 min 0 min 0,0 UV-I 72 W/m 10,3 km/h (2 Bft)
09.07.2013 07:40 14,8 C 14,6 C 79 % 1026,8 hPa 0,0 l/m 0 min 0 min 0,0 UV-I 74 W/m 5,1 km/h (1 Bft)
09.07.2013 07:42 14,9 C 14,6 C 79 % 1026,8 hPa 0,0 l/m 0 min 0 min 0,0 UV-I 74 W/m 10,3 km/h (2 Bft)
09.07.2013 07:44 14,9 C 14,6 C 79 % 1026,7 hPa 0,0 l/m 0 min 0 min 0,0 UV-I 76 W/m 7,7 km/h (2 Bft)
09.07.2013 07:46 14,9 C 14,6 C 79 % 1026,7 hPa 0,0 l/m 0 min 0 min 0,0 UV-I 76 W/m 0,0 km/h (0 Bft)
09.07.2013 07:48 15,0 C 14,6 C 79 % 1026,7 hPa 0,0 l/m 0 min 0 min 0,0 UV-I 77 W/m 0,0 km/h (0 Bft)
09.07.2013 07:50 15,1 C 14,6 C 79 % 1026,7 hPa 0,0 l/m 0 min 0 min 0,0 UV-I 77 W/m 7,7 km/h (2 Bft)
09.07.2013 07:52 15,1 C 14,6 C 78 % 1026,8 hPa 0,0 l/m 0 min 0 min 0,0 UV-I 79 W/m 7,7 km/h (2 Bft)
09.07.2013 07:54 15,1 C 14,6 C 78 % 1026,8 hPa 0,0 l/m 0 min 0 min 0,0 UV-I 81 W/m 7,7 km/h (2 Bft)
09.07.2013 07:56 15,2 C 14,6 C 79 % 1026,8 hPa 0,0 l/m 0 min 0 min 0,0 UV-I 81 W/m 0,0 km/h (0 Bft)
09.07.2013 07:58 15,2 C 14,6 C 78 % 1026,7 hPa 0,0 l/m 2 min 0 min 0,0 UV-I 204 W/m 12,9 km/h (3 Bft)
09.07.2013 08:00 15,2 C 14,6 C 78 % 1026,7 hPa 0,0 l/m 2 min 0 min 0,0 UV-I 229 W/m 10,3 km/h (2 Bft)
09.07.2013 08:02 15,3 C 15,1 C 78 % 1026,7 hPa 0,0 l/m 2 min 0 min 0,0 UV-I 232 W/m 12,9 km/h (3 Bft)
09.07.2013 08:06 15,3 C 15,1 C 77 % 1026,7 hPa 0,0 l/m 2 min 0 min 0,0 UV-I 243 W/m 10,3 km/h (2 Bft)
09.07.2013 08:08 15,4 C 15,1 C 77 % 1026,8 hPa 0,0 l/m 2 min 0 min 0,0 UV-I 248 W/m 15,4 km/h (3 Bft)
09.07.2013 08:10 15,4 C 15,1 C 77 % 1026,7 hPa 0,0 l/m 2 min 0 min 0,0 UV-I 255 W/m 0,0 km/h (0 Bft)
09.07.2013 08:12 15,5 C 15,1 C 77 % 1026,7 hPa 0,0 l/m 2 min 0 min 0,0 UV-I 258 W/m 0,0 km/h (0 Bft)
09.07.2013 08:14 15,6 C 15,1 C 77 % 1026,6 hPa 0,0 l/m 2 min 0 min 0,0 UV-I 264 W/m 7,7 km/h (2 Bft)
09.07.2013 08:16 15,6 C 15,1 C 76 % 1026,5 hPa 0,0 l/m 2 min 0 min 0,0 UV-I 269 W/m 12,9 km/h (3 Bft)
09.07.2013 08:18 15,6 C 15,1 C 76 % 1026,6 hPa 0,0 l/m 2 min 0 min 0,0 UV-I 274 W/m 12,9 km/h (3 Bft)
09.07.2013 08:20 15,7 C 15,1 C 76 % 1026,5 hPa 0,0 l/m 2 min 0 min 0,0 UV-I 278 W/m 12,9 km/h (3 Bft)
09.07.2013 08:22 15,7 C 15,7 C 76 % 1026,5 hPa 0,0 l/m 2 min 0 min 0,0 UV-I 283 W/m 15,4 km/h (3 Bft)
09.07.2013 08:24 15,8 C 15,7 C 76 % 1026,5 hPa 0,0 l/m 2 min 0 min 0,0 UV-I 287 W/m 7,7 km/h (2 Bft)
09.07.2013 08:26 15,8 C 15,7 C 76 % 1026,5 hPa 0,0 l/m 2 min 0 min 0,0 UV-I 292 W/m 5,1 km/h (1 Bft)
09.07.2013 08:28 15,9 C 15,7 C 76 % 1026,6 hPa 0,0 l/m 2 min 0 min 0,0 UV-I 297 W/m 7,7 km/h (2 Bft)
09.07.2013 08:30 16,0 C 15,7 C 76 % 1026,6 hPa 0,0 l/m 2 min 0 min 0,0 UV-I 302 W/m 10,3 km/h (2 Bft)
09.07.2013 08:32 16,1 C 15,7 C 76 % 1026,6 hPa 0,0 l/m 2 min 0 min 0,0 UV-I 306 W/m 2,6 km/h (1 Bft)
09.07.2013 08:34 16,2 C 16,2 C 76 % 1026,6 hPa 0,0 l/m 2 min 0 min 0,0 UV-I 311 W/m 2,6 km/h (1 Bft)
09.07.2013 08:36 16,2 C 16,2 C 76 % 1026,6 hPa 0,0 l/m 2 min 0 min 0,0 UV-I 315 W/m 5,1 km/h (1 Bft)
09.07.2013 08:38 16,2 C 16,2 C 75 % 1026,6 hPa 0,0 l/m 2 min 0 min 0,0 UV-I 320 W/m 7,7 km/h (2 Bft)
09.07.2013 08:40 16,3 C 16,2 C 75 % 1026,5 hPa 0,0 l/m 2 min 0 min 0,0 UV-I 327 W/m 12,9 km/h (3 Bft)
09.07.2013 08:42 16,3 C 16,2 C 75 % 1026,6 hPa 0,0 l/m 2 min 0 min 0,0 UV-I 330 W/m 12,9 km/h (3 Bft)
09.07.2013 08:44 16,4 C 16,2 C 75 % 1026,5 hPa 0,0 l/m 2 min 0 min 0,0 UV-I 336 W/m 7,7 km/h (2 Bft)
09.07.2013 08:46 16,6 C 16,2 C 75 % 1026,5 hPa 0,0 l/m 2 min 0 min 0,0 UV-I 341 W/m 0,0 km/h (0 Bft)
09.07.2013 08:48 16,7 C 16,8 C 75 % 1026,5 hPa 0,0 l/m 2 min 0 min 0,0 UV-I 345 W/m 7,7 km/h (2 Bft)
09.07.2013 08:50 16,7 C 16,8 C 75 % 1026,5 hPa 0,0 l/m 2 min 0 min 0,5 UV-I 352 W/m 10,3 km/h (2 Bft)
09.07.2013 08:52 16,8 C 16,8 C 75 % 1026,5 hPa 0,0 l/m 2 min 0 min 0,5 UV-I 357 W/m 7,7 km/h (2 Bft)
09.07.2013 08:54 16,9 C 16,8 C 74 % 1026,5 hPa 0,0 l/m 2 min 0 min 0,5 UV-I 360 W/m 10,3 km/h (2 Bft)
09.07.2013 08:56 17,1 C 16,8 C 74 % 1026,5 hPa 0,0 l/m 2 min 0 min 0,5 UV-I 366 W/m 10,3 km/h (2 Bft)
09.07.2013 08:58 17,1 C 16,8 C 73 % 1026,5 hPa 0,0 l/m 2 min 0 min 0,6 UV-I 371 W/m 10,3 km/h (2 Bft)
09.07.2013 09:00 17,2 C 16,8 C 73 % 1026,5 hPa 0,0 l/m 2 min 0 min 0,6 UV-I 374 W/m 12,9 km/h (3 Bft)
09.07.2013 09:02 17,3 C 16,8 C 73 % 1026,5 hPa 0,0 l/m 2 min 0 min 0,6 UV-I 381 W/m 10,3 km/h (2 Bft)
09.07.2013 09:06 17,4 C 17,3 C 73 % 1026,5 hPa 0,0 l/m 2 min 0 min 0,7 UV-I 390 W/m 12,9 km/h (3 Bft)
09.07.2013 09:08 17,5 C 17,3 C 73 % 1026,6 hPa 0,0 l/m 2 min 0 min 0,7 UV-I 396 W/m 12,9 km/h (3 Bft)
09.07.2013 09:10 17,6 C 17,3 C 72 % 1026,5 hPa 0,0 l/m 2 min 0 min 0,7 UV-I 399 W/m 10,3 km/h (2 Bft)
09.07.2013 09:12 17,7 C 17,3 C 72 % 1026,5 hPa 0,0 l/m 2 min 0 min 0,8 UV-I 403 W/m 2,6 km/h (1 Bft)
09.07.2013 09:14 17,8 C 17,9 C 72 % 1026,5 hPa 0,0 l/m 2 min 0 min 0,8 UV-I 410 W/m 7,7 km/h (2 Bft)
09.07.2013 09:16 17,8 C 17,3 C 72 % 1026,5 hPa 0,0 l/m 2 min 0 min 0,8 UV-I 413 W/m 15,4 km/h (3 Bft)
09.07.2013 09:18 17,9 C 17,3 C 71 % 1026,4 hPa 0,0 l/m 2 min 0 min 0,9 UV-I 417 W/m 12,9 km/h (3 Bft)
09.07.2013 09:20 18,1 C 17,9 C 71 % 1026,4 hPa 0,0 l/m 2 min 0 min 0,9 UV-I 425 W/m 10,3 km/h (2 Bft)
09.07.2013 09:22 18,1 C 17,9 C 71 % 1026,4 hPa 0,0 l/m 2 min 0 min 0,9 UV-I 429 W/m 12,9 km/h (3 Bft)
09.07.2013 09:24 18,2 C 17,9 C 71 % 1026,4 hPa 0,0 l/m 2 min 0 min 0,9 UV-I 432 W/m 15,4 km/h (3 Bft)
09.07.2013 09:26 18,2 C 17,9 C 71 % 1026,4 hPa 0,0 l/m 2 min 0 min 1,0 UV-I 439 W/m 10,3 km/h (2 Bft)
09.07.2013 09:28 18,3 C 17,9 C 71 % 1026,4 hPa 0,0 l/m 2 min 0 min 1,0 UV-I 445 W/m 12,9 km/h (3 Bft)
09.07.2013 09:30 18,3 C 17,9 C 71 % 1026,4 hPa 0,0 l/m 2 min 0 min 1,1 UV-I 450 W/m 12,9 km/h (3 Bft)
09.07.2013 09:32 18,4 C 17,9 C 71 % 1026,3 hPa 0,0 l/m 2 min 0 min 1,1 UV-I 457 W/m 10,3 km/h (2 Bft)
09.07.2013 09:34 18,5 C 18,4 C 71 % 1026,2 hPa 0,0 l/m 2 min 0 min 1,1 UV-I 461 W/m 7,7 km/h (2 Bft)
09.07.2013 09:36 18,6 C 17,9 C 70 % 1026,3 hPa 0,0 l/m 2 min 0 min 1,2 UV-I 466 W/m 18,0 km/h (3 Bft)
09.07.2013 09:38 18,7 C 18,4 C 71 % 1026,2 hPa 0,0 l/m 2 min 0 min 1,2 UV-I 473 W/m 2,6 km/h (1 Bft)
09.07.2013 09:40 18,8 C 18,4 C 70 % 1026,2 hPa 0,0 l/m 2 min 0 min 1,2 UV-I 476 W/m 10,3 km/h (2 Bft)
09.07.2013 09:42 18,9 C 18,4 C 70 % 1026,2 hPa 0,0 l/m 2 min 0 min 1,3 UV-I 480 W/m 2,6 km/h (1 Bft)
09.07.2013 09:44 19,0 C 18,4 C 70 % 1026,2 hPa 0,0 l/m 2 min 0 min 1,3 UV-I 487 W/m 10,3 km/h (2 Bft)
09.07.2013 09:46 19,1 C 18,4 C 70 % 1026,1 hPa 0,0 l/m 2 min 0 min 1,3 UV-I 490 W/m 10,3 km/h (2 Bft)
09.07.2013 09:48 19,1 C 18,4 C 69 % 1026,1 hPa 0,0 l/m 2 min 0 min 1,4 UV-I 496 W/m 12,9 km/h (3 Bft)
09.07.2013 09:50 19,2 C 18,4 C 69 % 1026,2 hPa 0,0 l/m 2 min 0 min 1,4 UV-I 501 W/m 12,9 km/h (3 Bft)
09.07.2013 09:52 19,2 C 18,4 C 69 % 1026,1 hPa 0,0 l/m 2 min 0 min 1,4 UV-I 506 W/m 10,3 km/h (2 Bft)
09.07.2013 09:54 19,3 C 19,0 C 70 % 1026,1 hPa 0,0 l/m 2 min 0 min 1,5 UV-I 510 W/m 7,7 km/h (2 Bft)
09.07.2013 09:56 19,3 C 19,0 C 69 % 1026,1 hPa 0,0 l/m 2 min 0 min 1,5 UV-I 517 W/m 12,9 km/h (3 Bft)
09.07.2013 09:58 19,4 C 19,6 C 70 % 1026,2 hPa 0,0 l/m 2 min 0 min 1,5 UV-I 520 W/m 12,9 km/h (3 Bft)
09.07.2013 10:00 19,4 C 20,1 C 69 % 1026,2 hPa 0,0 l/m 2 min 0 min 1,6 UV-I 522 W/m 15,4 km/h (3 Bft)
09.07.2013 10:02 19,4 C 21,2 C 69 % 1026,1 hPa 0,0 l/m 2 min 0 min 1,6 UV-I 527 W/m 15,4 km/h (3 Bft)
09.07.2013 10:06 19,6 C 22,3 C 70 % 1026,1 hPa 0,0 l/m 2 min 0 min 1,7 UV-I 540 W/m 12,9 km/h (3 Bft)
09.07.2013 10:08 19,7 C 24,0 C 70 % 1026,1 hPa 0,0 l/m 2 min 0 min 1,7 UV-I 541 W/m 7,7 km/h (2 Bft)
09.07.2013 10:10 19,8 C 24,0 C 70 % 1026,1 hPa 0,0 l/m 2 min 0 min 1,8 UV-I 547 W/m 10,3 km/h (2 Bft)
09.07.2013 10:12 19,9 C 25,1 C 70 % 1026,1 hPa 0,0 l/m 2 min 0 min 1,8 UV-I 550 W/m 2,6 km/h (1 Bft)
09.07.2013 10:14 20,0 C 25,1 C 70 % 1026,1 hPa 0,0 l/m 2 min 0 min 1,9 UV-I 554 W/m 10,3 km/h (2 Bft)
09.07.2013 10:16 20,1 C 25,1 C 69 % 1026,1 hPa 0,0 l/m 2 min 0 min 1,9 UV-I 559 W/m 12,9 km/h (3 Bft)
09.07.2013 10:18 20,2 C 24,6 C 69 % 1026,1 hPa 0,0 l/m 2 min 0 min 1,9 UV-I 563 W/m 12,9 km/h (3 Bft)
09.07.2013 10:20 20,2 C 24,0 C 68 % 1026,0 hPa 0,0 l/m 2 min 0 min 2,0 UV-I 568 W/m 12,9 km/h (3 Bft)
09.07.2013 10:22 20,3 C 25,1 C 69 % 1026,0 hPa 0,0 l/m 2 min 0 min 2,0 UV-I 573 W/m 10,3 km/h (2 Bft)
09.07.2013 10:24 20,3 C 25,1 C 69 % 1026,0 hPa 0,0 l/m 2 min 0 min 2,0 UV-I 577 W/m 12,9 km/h (3 Bft)
09.07.2013 10:26 20,4 C 25,7 C 69 % 1026,0 hPa 0,0 l/m 2 min 0 min 2,1 UV-I 582 W/m 2,6 km/h (1 Bft)
09.07.2013 10:28 20,6 C 25,7 C 69 % 1026,0 hPa 0,0 l/m 2 min 0 min 2,1 UV-I 584 W/m 5,1 km/h (1 Bft)
09.07.2013 10:30 20,7 C 26,2 C 69 % 1026,0 hPa 0,0 l/m 2 min 0 min 2,1 UV-I 589 W/m 0,0 km/h (0 Bft)
09.07.2013 10:32 20,8 C 26,2 C 70 % 1026,0 hPa 0,0 l/m 2 min 0 min 2,2 UV-I 592 W/m 12,9 km/h (3 Bft)
09.07.2013 10:34 20,8 C 26,2 C 69 % 1026,0 hPa 0,0 l/m 2 min 0 min 2,2 UV-I 598 W/m 10,3 km/h (2 Bft)
09.07.2013 10:36 20,9 C 26,2 C 69 % 1025,9 hPa 0,0 l/m 2 min 0 min 2,3 UV-I 603 W/m 5,1 km/h (1 Bft)
09.07.2013 10:38 21,1 C 26,2 C 68 % 1025,9 hPa 0,0 l/m 2 min 0 min 2,3 UV-I 605 W/m 10,3 km/h (2 Bft)
09.07.2013 10:40 21,2 C 27,3 C 69 % 1025,9 hPa 0,0 l/m 2 min 0 min 2,3 UV-I 608 W/m 5,1 km/h (1 Bft)
09.07.2013 10:42 21,2 C 26,8 C 68 % 1026,0 hPa 0,0 l/m 2 min 0 min 2,4 UV-I 613 W/m 12,9 km/h (3 Bft)
09.07.2013 10:44 21,3 C 26,2 C 67 % 1026,0 hPa 0,0 l/m 2 min 0 min 2,4 UV-I 617 W/m 12,9 km/h (3 Bft)
09.07.2013 10:46 21,3 C 26,8 C 67 % 1025,9 hPa 0,0 l/m 2 min 0 min 2,4 UV-I 619 W/m 10,3 km/h (2 Bft)
09.07.2013 10:48 21,4 C 26,8 C 67 % 1025,7 hPa 0,0 l/m 2 min 0 min 2,5 UV-I 622 W/m 12,9 km/h (3 Bft)
09.07.2013 10:50 21,4 C 26,8 C 68 % 1025,8 hPa 0,0 l/m 2 min 0 min 2,5 UV-I 628 W/m 12,9 km/h (3 Bft)
09.07.2013 10:52 21,5 C 26,8 C 68 % 1025,8 hPa 0,0 l/m 2 min 0 min 2,6 UV-I 629 W/m 7,7 km/h (2 Bft)
09.07.2013 10:54 21,6 C 26,8 C 68 % 1025,8 hPa 0,0 l/m 2 min 0 min 2,6 UV-I 636 W/m 10,3 km/h (2 Bft)
09.07.2013 10:56 21,6 C 27,3 C 68 % 1025,8 hPa 0,0 l/m 2 min 0 min 2,6 UV-I 642 W/m 7,7 km/h (2 Bft)
09.07.2013 10:58 21,7 C 27,3 C 67 % 1025,8 hPa 0,0 l/m 2 min 0 min 2,7 UV-I 643 W/m 12,9 km/h (3 Bft)
09.07.2013 11:00 21,7 C 27,3 C 68 % 1025,8 hPa 0,0 l/m 2 min 0 min 2,7 UV-I 647 W/m 15,4 km/h (3 Bft)
09.07.2013 11:02 21,8 C 27,9 C 68 % 1025,8 hPa 0,0 l/m 2 min 0 min 2,8 UV-I 652 W/m 7,7 km/h (2 Bft)
09.07.2013 11:06 21,9 C 27,3 C 68 % 1025,8 hPa 0,0 l/m 2 min 0 min 2,8 UV-I 659 W/m 12,9 km/h (3 Bft)
09.07.2013 11:08 22,0 C 27,9 C 67 % 1025,8 hPa 0,0 l/m 2 min 0 min 2,9 UV-I 661 W/m 15,4 km/h (3 Bft)
09.07.2013 11:10 22,1 C 26,8 C 67 % 1025,7 hPa 0,0 l/m 2 min 0 min 2,9 UV-I 664 W/m 10,3 km/h (2 Bft)
09.07.2013 11:12 22,1 C 26,8 C 67 % 1025,7 hPa 0,0 l/m 2 min 0 min 3,0 UV-I 670 W/m 12,9 km/h (3 Bft)
09.07.2013 11:14 22,2 C 27,3 C 68 % 1025,7 hPa 0,0 l/m 2 min 0 min 3,0 UV-I 671 W/m 5,1 km/h (1 Bft)
09.07.2013 11:16 22,3 C 28,4 C 69 % 1025,6 hPa 0,0 l/m 2 min 0 min 3,0 UV-I 675 W/m 7,7 km/h (2 Bft)
09.07.2013 11:18 22,4 C 27,9 C 68 % 1025,6 hPa 0,0 l/m 2 min 0 min 3,0 UV-I 679 W/m 10,3 km/h (2 Bft)
09.07.2013 11:20 22,6 C 27,3 C 67 % 1025,6 hPa 0,0 l/m 2 min 0 min 3,1 UV-I 680 W/m 12,9 km/h (3 Bft)
09.07.2013 11:22 22,7 C 26,8 C 67 % 1025,6 hPa 0,0 l/m 2 min 0 min 3,1 UV-I 686 W/m 15,4 km/h (3 Bft)
09.07.2013 11:24 22,8 C 26,8 C 67 % 1025,6 hPa 0,0 l/m 2 min 0 min 3,2 UV-I 693 W/m 18,0 km/h (3 Bft)
09.07.2013 11:26 22,8 C 27,3 C 66 % 1025,6 hPa 0,0 l/m 2 min 0 min 3,2 UV-I 694 W/m 12,9 km/h (3 Bft)
09.07.2013 11:28 22,8 C 27,9 C 67 % 1025,6 hPa 0,0 l/m 2 min 0 min 3,2 UV-I 696 W/m 15,4 km/h (3 Bft)
09.07.2013 11:30 22,8 C 27,3 C 67 % 1025,6 hPa 0,0 l/m 2 min 0 min 3,2 UV-I 698 W/m 15,4 km/h (3 Bft)
09.07.2013 11:32 22,7 C 27,3 C 66 % 1025,6 hPa 0,0 l/m 2 min 0 min 3,3 UV-I 701 W/m 10,3 km/h (2 Bft)
09.07.2013 11:34 22,7 C 27,9 C 67 % 1025,6 hPa 0,0 l/m 2 min 0 min 3,3 UV-I 703 W/m 12,9 km/h (3 Bft)
09.07.2013 11:36 22,6 C 27,9 C 68 % 1025,6 hPa 0,0 l/m 2 min 0 min 3,3 UV-I 705 W/m 15,4 km/h (3 Bft)
09.07.2013 11:38 22,7 C 27,9 C 69 % 1025,6 hPa 0,0 l/m 2 min 0 min 3,4 UV-I 710 W/m 18,0 km/h (3 Bft)
09.07.2013 11:40 23,1 C 29,0 C 68 % 1025,7 hPa 0,0 l/m 2 min 0 min 3,4 UV-I 708 W/m 7,7 km/h (2 Bft)
09.07.2013 11:42 23,2 C 28,4 C 66 % 1025,7 hPa 0,0 l/m 2 min 0 min 3,4 UV-I 712 W/m 15,4 km/h (3 Bft)
09.07.2013 11:44 23,2 C 28,4 C 67 % 1025,6 hPa 0,0 l/m 2 min 0 min 3,5 UV-I 712 W/m 15,4 km/h (3 Bft)
09.07.2013 11:46 23,4 C 29,0 C 68 % 1025,6 hPa 0,0 l/m 2 min 0 min 3,5 UV-I 721 W/m 10,3 km/h (2 Bft)
09.07.2013 11:48 23,4 C 27,9 C 66 % 1025,6 hPa 0,0 l/m 2 min 0 min 3,5 UV-I 722 W/m 10,3 km/h (2 Bft)
09.07.2013 11:50 23,3 C 27,3 C 66 % 1025,6 hPa 0,0 l/m 2 min 0 min 3,6 UV-I 724 W/m 15,4 km/h (3 Bft)
09.07.2013 11:52 23,2 C 26,2 C 67 % 1025,6 hPa 0,0 l/m 2 min 0 min 3,6 UV-I 728 W/m 12,9 km/h (3 Bft)
09.07.2013 11:54 23,3 C 26,8 C 66 % 1025,6 hPa 0,0 l/m 2 min 0 min 3,6 UV-I 728 W/m 7,7 km/h (2 Bft)
09.07.2013 11:56 23,4 C 26,2 C 66 % 1025,6 hPa 0,0 l/m 2 min 0 min 3,7 UV-I 731 W/m 23,2 km/h (4 Bft)
09.07.2013 11:58 23,4 C 26,8 C 66 % 1025,6 hPa 0,0 l/m 2 min 0 min 3,7 UV-I 735 W/m 10,3 km/h (2 Bft)
09.07.2013 12:00 23,4 C 27,3 C 66 % 1025,6 hPa 0,0 l/m 2 min 0 min 3,7 UV-I 737 W/m 15,4 km/h (3 Bft)
09.07.2013 12:02 23,5 C 28,4 C 67 % 1025,6 hPa 0,0 l/m 2 min 0 min 3,8 UV-I 740 W/m 2,6 km/h (1 Bft)
09.07.2013 12:06 23,7 C 29,6 C 66 % 1025,6 hPa 0,0 l/m 2 min 0 min 3,8 UV-I 745 W/m 15,4 km/h (3 Bft)
09.07.2013 12:08 23,9 C 30,7 C 68 % 1025,5 hPa 0,0 l/m 2 min 0 min 3,8 UV-I 751 W/m 7,7 km/h (2 Bft)
09.07.2013 12:10 24,2 C 31,2 C 66 % 1025,5 hPa 0,0 l/m 2 min 0 min 3,9 UV-I 751 W/m 2,6 km/h (1 Bft)
09.07.2013 12:12 24,3 C 31,2 C 65 % 1025,5 hPa 0,0 l/m 2 min 0 min 3,9 UV-I 751 W/m 15,4 km/h (3 Bft)
09.07.2013 12:14 24,3 C 31,2 C 65 % 1025,5 hPa 0,0 l/m 2 min 0 min 3,9 UV-I 754 W/m 7,7 km/h (2 Bft)
09.07.2013 12:16 24,3 C 30,7 C 64 % 1025,5 hPa 0,0 l/m 2 min 0 min 3,9 UV-I 754 W/m 15,4 km/h (3 Bft)
09.07.2013 12:18 24,4 C 31,2 C 64 % 1025,5 hPa 0,0 l/m 2 min 0 min 3,9 UV-I 758 W/m 7,7 km/h (2 Bft)
09.07.2013 12:20 24,3 C 31,2 C 64 % 1025,5 hPa 0,0 l/m 2 min 0 min 4,0 UV-I 758 W/m 18,0 km/h (3 Bft)
09.07.2013 12:22 24,2 C 31,2 C 66 % 1025,4 hPa 0,0 l/m 2 min 0 min 4,0 UV-I 758 W/m 10,3 km/h (2 Bft)
09.07.2013 12:24 24,3 C 30,7 C 65 % 1025,3 hPa 0,0 l/m 2 min 0 min 4,0 UV-I 758 W/m 20,6 km/h (4 Bft)
09.07.2013 12:26 24,2 C 30,1 C 65 % 1025,4 hPa 0,0 l/m 2 min 0 min 4,0 UV-I 765 W/m 18,0 km/h (3 Bft)
09.07.2013 12:28 24,3 C 30,7 C 65 % 1025,3 hPa 0,0 l/m 2 min 0 min 4,1 UV-I 765 W/m 20,6 km/h (4 Bft)
09.07.2013 12:30 24,2 C 30,1 C 65 % 1025,3 hPa 0,0 l/m 2 min 0 min 4,0 UV-I 765 W/m 15,4 km/h (3 Bft)
09.07.2013 12:32 24,3 C 30,1 C 65 % 1025,3 hPa 0,0 l/m 2 min 0 min 4,1 UV-I 768 W/m 15,4 km/h (3 Bft)
09.07.2013 12:34 24,3 C 30,7 C 66 % 1025,3 hPa 0,0 l/m 2 min 0 min 4,1 UV-I 768 W/m 12,9 km/h (3 Bft)
09.07.2013 12:36 24,4 C 29,6 C 65 % 1025,2 hPa 0,0 l/m 2 min 0 min 4,1 UV-I 766 W/m 15,4 km/h (3 Bft)
09.07.2013 12:38 24,6 C 31,2 C 66 % 1025,2 hPa 0,0 l/m 2 min 0 min 4,1 UV-I 766 W/m 10,3 km/h (2 Bft)
09.07.2013 12:40 24,8 C 31,2 C 65 % 1025,2 hPa 0,0 l/m 2 min 0 min 4,1 UV-I 770 W/m 12,9 km/h (3 Bft)
09.07.2013 12:42 24,8 C 31,2 C 64 % 1025,2 hPa 0,0 l/m 2 min 0 min 4,1 UV-I 773 W/m 18,0 km/h (3 Bft)
09.07.2013 12:44 24,7 C 30,7 C 64 % 1025,2 hPa 0,0 l/m 2 min 0 min 4,2 UV-I 777 W/m 12,9 km/h (3 Bft)
09.07.2013 12:46 24,7 C 30,7 C 64 % 1025,2 hPa 0,0 l/m 2 min 0 min 4,2 UV-I 780 W/m 15,4 km/h (3 Bft)
09.07.2013 12:48 24,6 C 31,2 C 64 % 1025,2 hPa 0,0 l/m 2 min 0 min 4,2 UV-I 777 W/m 12,9 km/h (3 Bft)
09.07.2013 12:50 24,6 C 31,2 C 64 % 1025,2 hPa 0,0 l/m 2 min 0 min 4,2 UV-I 780 W/m 12,9 km/h (3 Bft)
09.07.2013 12:52 24,6 C 31,8 C 65 % 1025,1 hPa 0,0 l/m 2 min 0 min 4,2 UV-I 780 W/m 10,3 km/h (2 Bft)
09.07.2013 12:54 24,9 C 31,8 C 65 % 1025,1 hPa 0,0 l/m 2 min 0 min 4,2 UV-I 780 W/m 10,3 km/h (2 Bft)
09.07.2013 12:56 25,2 C 32,3 C 65 % 1025,1 hPa 0,0 l/m 2 min 0 min 4,2 UV-I 782 W/m 12,9 km/h (3 Bft)
09.07.2013 12:58 25,1 C 31,8 C 63 % 1025,1 hPa 0,0 l/m 2 min 0 min 4,0 UV-I 788 W/m 15,4 km/h (3 Bft)
09.07.2013 13:00 25,1 C 30,7 C 64 % 1025,0 hPa 0,0 l/m 2 min 0 min 3,8 UV-I 791 W/m 15,4 km/h (3 Bft)
09.07.2013 13:02 25,2 C 30,7 C 63 % 1025,0 hPa 0,0 l/m 2 min 0 min 3,6 UV-I 791 W/m 15,4 km/h (3 Bft)
09.07.2013 13:06 25,3 C 30,7 C 64 % 1024,9 hPa 0,0 l/m 2 min 0 min 3,0 UV-I 795 W/m 15,4 km/h (3 Bft)
09.07.2013 13:08 25,5 C 31,8 C 64 % 1024,9 hPa 0,0 l/m 2 min 0 min 2,7 UV-I 796 W/m 15,4 km/h (3 Bft)
09.07.2013 13:10 25,4 C 30,7 C 62 % 1024,9 hPa 0,0 l/m 2 min 0 min 2,6 UV-I 795 W/m 18,0 km/h (3 Bft)
09.07.2013 13:12 25,3 C 31,2 C 64 % 1024,9 hPa 0,0 l/m 2 min 0 min 2,5 UV-I 796 W/m 20,6 km/h (4 Bft)
09.07.2013 13:14 25,6 C 32,3 C 63 % 1024,8 hPa 0,0 l/m 2 min 0 min 2,5 UV-I 795 W/m 2,6 km/h (1 Bft)
09.07.2013 13:16 25,6 C 31,8 C 62 % 1024,8 hPa 0,0 l/m 2 min 0 min 2,5 UV-I 798 W/m 12,9 km/h (3 Bft)
09.07.2013 13:18 25,6 C 31,8 C 62 % 1024,7 hPa 0,0 l/m 2 min 0 min 2,5 UV-I 798 W/m 18,0 km/h (3 Bft)
09.07.2013 13:20 25,4 C 31,2 C 61 % 1024,8 hPa 0,0 l/m 2 min 0 min 2,5 UV-I 800 W/m 18,0 km/h (3 Bft)
09.07.2013 13:22 25,6 C 31,8 C 63 % 1024,6 hPa 0,0 l/m 2 min 0 min 2,5 UV-I 798 W/m 10,3 km/h (2 Bft)
09.07.2013 13:24 25,8 C 31,8 C 62 % 1024,6 hPa 0,0 l/m 2 min 0 min 2,5 UV-I 802 W/m 12,9 km/h (3 Bft)
09.07.2013 13:26 25,7 C 31,8 C 61 % 1024,5 hPa 0,0 l/m 2 min 0 min 2,5 UV-I 802 W/m 12,9 km/h (3 Bft)
09.07.2013 13:28 25,7 C 31,2 C 61 % 1024,5 hPa 0,0 l/m 2 min 0 min 2,5 UV-I 800 W/m 20,6 km/h (4 Bft)
09.07.2013 13:30 25,6 C 31,2 C 62 % 1024,5 hPa 0,0 l/m 2 min 0 min 2,5 UV-I 800 W/m 18,0 km/h (3 Bft)
09.07.2013 13:32 25,5 C 30,1 C 61 % 1024,6 hPa 0,0 l/m 2 min 0 min 2,5 UV-I 802 W/m 20,6 km/h (4 Bft)
09.07.2013 13:34 25,6 C 31,2 C 62 % 1024,4 hPa 0,0 l/m 2 min 0 min 2,6 UV-I 805 W/m 7,7 km/h (2 Bft)
09.07.2013 13:36 25,6 C 31,2 C 62 % 1024,4 hPa 0,0 l/m 2 min 0 min 2,5 UV-I 802 W/m 12,9 km/h (3 Bft)
09.07.2013 13:38 25,7 C 31,8 C 61 % 1024,4 hPa 0,0 l/m 2 min 0 min 2,6 UV-I 800 W/m 15,4 km/h (3 Bft)
09.07.2013 13:40 25,7 C 31,2 C 61 % 1024,4 hPa 0,0 l/m 2 min 0 min 2,6 UV-I 803 W/m 12,9 km/h (3 Bft)
09.07.2013 13:42 25,7 C 31,2 C 60 % 1024,4 hPa 0,0 l/m 2 min 0 min 2,6 UV-I 800 W/m 12,9 km/h (3 Bft)
09.07.2013 13:44 25,7 C 30,1 C 60 % 1024,4 hPa 0,0 l/m 2 min 0 min 2,7 UV-I 802 W/m 12,9 km/h (3 Bft)
09.07.2013 13:46 25,8 C 30,1 C 61 % 1024,4 hPa 0,0 l/m 2 min 0 min 2,7 UV-I 803 W/m 12,9 km/h (3 Bft)
09.07.2013 13:48 26,0 C 29,6 C 61 % 1024,4 hPa 0,0 l/m 2 min 0 min 2,9 UV-I 798 W/m 20,6 km/h (4 Bft)
09.07.2013 13:50 26,1 C 28,4 C 60 % 1024,3 hPa 0,0 l/m 2 min 0 min 3,3 UV-I 795 W/m 18,0 km/h (3 Bft)
09.07.2013 13:52 26,1 C 27,9 C 61 % 1024,3 hPa 0,0 l/m 2 min 0 min 3,6 UV-I 798 W/m 7,7 km/h (2 Bft)
09.07.2013 13:54 26,0 C 27,3 C 60 % 1024,3 hPa 0,0 l/m 2 min 0 min 3,8 UV-I 800 W/m 10,3 km/h (2 Bft)
09.07.2013 13:56 26,0 C 26,8 C 60 % 1024,2 hPa 0,0 l/m 2 min 0 min 4,2 UV-I 802 W/m 18,0 km/h (3 Bft)
09.07.2013 13:58 26,1 C 27,3 C 60 % 1024,2 hPa 0,0 l/m 2 min 0 min 4,4 UV-I 798 W/m 12,9 km/h (3 Bft)
09.07.2013 14:00 26,3 C 27,3 C 59 % 1024,3 hPa 0,0 l/m 2 min 0 min 4,5 UV-I 802 W/m 10,3 km/h (2 Bft)
09.07.2013 14:02 26,3 C 26,8 C 58 % 1024,3 hPa 0,0 l/m 2 min 0 min 4,5 UV-I 802 W/m 15,4 km/h (3 Bft)
09.07.2013 14:06 26,3 C 26,8 C 62 % 1024,2 hPa 0,0 l/m 2 min 0 min 4,4 UV-I 793 W/m 15,4 km/h (3 Bft)
09.07.2013 14:08 26,4 C 26,8 C 59 % 1024,2 hPa 0,0 l/m 2 min 0 min 4,4 UV-I 789 W/m 12,9 km/h (3 Bft)
09.07.2013 14:10 26,4 C 26,8 C 58 % 1024,1 hPa 0,0 l/m 2 min 0 min 4,3 UV-I 786 W/m 10,3 km/h (2 Bft)
09.07.2013 14:12 26,4 C 27,3 C 58 % 1024,2 hPa 0,0 l/m 2 min 0 min 4,2 UV-I 775 W/m 2,6 km/h (1 Bft)
09.07.2013 14:14 26,6 C 27,3 C 59 % 1024,1 hPa 0,0 l/m 2 min 0 min 4,2 UV-I 775 W/m 12,9 km/h (3 Bft)
09.07.2013 14:16 26,6 C 27,3 C 60 % 1024,0 hPa 0,0 l/m 2 min 0 min 4,2 UV-I 775 W/m 7,7 km/h (2 Bft)
09.07.2013 14:18 26,6 C 27,3 C 59 % 1024,1 hPa 0,0 l/m 2 min 0 min 4,2 UV-I 775 W/m 12,9 km/h (3 Bft)
09.07.2013 14:20 26,5 C 26,8 C 61 % 1024,1 hPa 0,0 l/m 2 min 0 min 4,2 UV-I 773 W/m 20,6 km/h (4 Bft)
09.07.2013 14:22 26,3 C 26,8 C 59 % 1024,1 hPa 0,0 l/m 2 min 0 min 4,3 UV-I 777 W/m 12,9 km/h (3 Bft)
09.07.2013 14:24 26,1 C 26,8 C 61 % 1024,0 hPa 0,0 l/m 2 min 0 min 4,3 UV-I 777 W/m 15,4 km/h (3 Bft)
09.07.2013 14:26 26,1 C 26,8 C 61 % 1024,0 hPa 0,0 l/m 2 min 0 min 4,2 UV-I 779 W/m 15,4 km/h (3 Bft)
09.07.2013 14:28 26,1 C 26,8 C 61 % 1024,0 hPa 0,0 l/m 2 min 0 min 4,2 UV-I 766 W/m 23,2 km/h (4 Bft)
09.07.2013 14:30 26,2 C 26,8 C 61 % 1023,9 hPa 0,0 l/m 2 min 0 min 4,0 UV-I 768 W/m 15,4 km/h (3 Bft)
09.07.2013 14:32 26,3 C 27,3 C 62 % 1024,0 hPa 0,0 l/m 2 min 0 min 4,2 UV-I 765 W/m 18,0 km/h (3 Bft)
09.07.2013 14:34 26,3 C 27,3 C 61 % 1023,9 hPa 0,0 l/m 2 min 0 min 4,1 UV-I 759 W/m 18,0 km/h (3 Bft)
09.07.2013 14:36 26,3 C 27,3 C 61 % 1023,9 hPa 0,0 l/m 2 min 0 min 4,2 UV-I 772 W/m 20,6 km/h (4 Bft)
09.07.2013 14:38 26,3 C 26,8 C 60 % 1023,9 hPa 0,0 l/m 2 min 0 min 4,2 UV-I 770 W/m 18,0 km/h (3 Bft)
09.07.2013 14:40 26,3 C 27,3 C 60 % 1023,8 hPa 0,0 l/m 2 min 0 min 4,1 UV-I 761 W/m 18,0 km/h (3 Bft)
09.07.2013 14:42 26,4 C 27,3 C 59 % 1023,9 hPa 0,0 l/m 2 min 0 min 4,1 UV-I 768 W/m 15,4 km/h (3 Bft)
09.07.2013 14:44 26,4 C 26,8 C 59 % 1023,9 hPa 0,0 l/m 2 min 0 min 4,2 UV-I 768 W/m 10,3 km/h (2 Bft)
09.07.2013 14:46 26,4 C 26,8 C 59 % 1023,9 hPa 0,0 l/m 2 min 0 min 4,1 UV-I 763 W/m 10,3 km/h (2 Bft)
09.07.2013 14:48 26,3 C 26,8 C 59 % 1023,7 hPa 0,0 l/m 2 min 0 min 4,1 UV-I 765 W/m 15,4 km/h (3 Bft)
09.07.2013 14:50 26,4 C 26,8 C 60 % 1023,8 hPa 0,0 l/m 2 min 0 min 4,1 UV-I 758 W/m 15,4 km/h (3 Bft)
09.07.2013 14:52 26,5 C 26,8 C 59 % 1023,8 hPa 0,0 l/m 2 min 0 min 4,0 UV-I 751 W/m 15,4 km/h (3 Bft)
09.07.2013 14:54 26,4 C 26,8 C 59 % 1023,7 hPa 0,0 l/m 2 min 0 min 4,1 UV-I 770 W/m 12,9 km/h (3 Bft)
09.07.2013 14:56 26,4 C 26,8 C 59 % 1023,8 hPa 0,0 l/m 2 min 0 min 4,0 UV-I 758 W/m 20,6 km/h (4 Bft)
09.07.2013 14:58 26,5 C 26,8 C 59 % 1023,8 hPa 0,0 l/m 2 min 0 min 4,0 UV-I 756 W/m 20,6 km/h (4 Bft)
09.07.2013 15:00 26,4 C 26,8 C 58 % 1023,8 hPa 0,0 l/m 2 min 0 min 4,0 UV-I 754 W/m 18,0 km/h (3 Bft)
09.07.2013 15:02 26,5 C 27,3 C 60 % 1023,7 hPa 0,0 l/m 2 min 0 min 4,0 UV-I 747 W/m 2,6 km/h (1 Bft)
09.07.2013 15:06 26,7 C 27,3 C 59 % 1023,7 hPa 0,0 l/m 2 min 0 min 4,0 UV-I 756 W/m 28,3 km/h (4 Bft)
09.07.2013 15:08 26,6 C 26,8 C 58 % 1023,7 hPa 0,0 l/m 2 min 0 min 4,0 UV-I 744 W/m 23,2 km/h (4 Bft)
09.07.2013 15:10 26,4 C 26,8 C 58 % 1023,7 hPa 0,0 l/m 2 min 0 min 4,0 UV-I 752 W/m 18,0 km/h (3 Bft)
09.07.2013 15:12 26,4 C 26,8 C 59 % 1023,7 hPa 0,0 l/m 2 min 0 min 3,9 UV-I 744 W/m 20,6 km/h (4 Bft)
09.07.2013 15:14 26,6 C 27,3 C 60 % 1023,7 hPa 0,0 l/m 2 min 0 min 3,9 UV-I 742 W/m 2,6 km/h (1 Bft)
09.07.2013 15:16 27,1 C 28,4 C 59 % 1023,6 hPa 0,0 l/m 2 min 0 min 3,8 UV-I 738 W/m 12,9 km/h (3 Bft)
09.07.2013 15:18 26,9 C 27,3 C 57 % 1023,7 hPa 0,0 l/m 2 min 0 min 3,7 UV-I 729 W/m 20,6 km/h (4 Bft)
09.07.2013 15:20 26,8 C 26,8 C 57 % 1023,7 hPa 0,0 l/m 2 min 0 min 3,8 UV-I 733 W/m 15,4 km/h (3 Bft)
09.07.2013 15:22 26,6 C 26,8 C 58 % 1023,6 hPa 0,0 l/m 2 min 0 min 3,8 UV-I 737 W/m 12,9 km/h (3 Bft)
09.07.2013 15:24 26,4 C 26,8 C 58 % 1023,6 hPa 0,0 l/m 2 min 0 min 3,7 UV-I 715 W/m 15,4 km/h (3 Bft)
09.07.2013 15:26 26,4 C 27,9 C 60 % 1023,5 hPa 0,0 l/m 2 min 0 min 3,7 UV-I 722 W/m 20,6 km/h (4 Bft)
09.07.2013 15:28 26,6 C 27,3 C 59 % 1023,5 hPa 0,0 l/m 2 min 0 min 3,7 UV-I 719 W/m 28,3 km/h (4 Bft)
09.07.2013 15:30 26,6 C 27,3 C 59 % 1023,5 hPa 0,0 l/m 2 min 0 min 3,6 UV-I 712 W/m 25,7 km/h (4 Bft)
09.07.2013 15:32 26,7 C 27,9 C 58 % 1023,5 hPa 0,0 l/m 2 min 0 min 3,7 UV-I 721 W/m 15,4 km/h (3 Bft)
09.07.2013 15:34 26,7 C 27,3 C 59 % 1023,4 hPa 0,0 l/m 2 min 0 min 3,6 UV-I 717 W/m 18,0 km/h (3 Bft)
09.07.2013 15:36 26,7 C 27,9 C 59 % 1023,4 hPa 0,0 l/m 2 min 0 min 3,6 UV-I 719 W/m 15,4 km/h (3 Bft)
09.07.2013 15:38 26,7 C 27,9 C 58 % 1023,4 hPa 0,0 l/m 2 min 0 min 3,6 UV-I 710 W/m 15,4 km/h (3 Bft)
09.07.2013 15:40 26,8 C 27,9 C 59 % 1023,4 hPa 0,0 l/m 2 min 0 min 3,5 UV-I 708 W/m 12,9 km/h (3 Bft)
09.07.2013 15:42 26,9 C 27,9 C 59 % 1023,3 hPa 0,0 l/m 2 min 0 min 3,5 UV-I 703 W/m 20,6 km/h (4 Bft)
09.07.2013 15:44 26,9 C 27,9 C 59 % 1023,3 hPa 0,0 l/m 2 min 0 min 3,4 UV-I 694 W/m 15,4 km/h (3 Bft)
09.07.2013 15:46 26,9 C 27,3 C 57 % 1023,3 hPa 0,0 l/m 2 min 0 min 3,4 UV-I 698 W/m 20,6 km/h (4 Bft)
09.07.2013 15:48 26,7 C 27,3 C 58 % 1023,3 hPa 0,0 l/m 2 min 0 min 3,3 UV-I 691 W/m 18,0 km/h (3 Bft)
09.07.2013 15:50 26,7 C 27,3 C 58 % 1023,3 hPa 0,0 l/m 2 min 0 min 3,3 UV-I 689 W/m 18,0 km/h (3 Bft)
09.07.2013 15:52 26,7 C 27,3 C 59 % 1023,3 hPa 0,0 l/m 2 min 0 min 3,3 UV-I 684 W/m 10,3 km/h (2 Bft)
09.07.2013 15:54 26,7 C 27,3 C 58 % 1023,2 hPa 0,0 l/m 2 min 0 min 3,2 UV-I 680 W/m 10,3 km/h (2 Bft)
09.07.2013 15:56 26,8 C 27,3 C 60 % 1023,2 hPa 0,0 l/m 2 min 0 min 3,2 UV-I 679 W/m 12,9 km/h (3 Bft)
09.07.2013 15:58 26,9 C 27,9 C 60 % 1023,2 hPa 0,0 l/m 2 min 0 min 3,1 UV-I 668 W/m 12,9 km/h (3 Bft)
09.07.2013 16:00 26,9 C 27,3 C 58 % 1023,2 hPa 0,0 l/m 2 min 0 min 3,1 UV-I 664 W/m 20,6 km/h (4 Bft)
09.07.2013 16:02 27,0 C 27,9 C 58 % 1023,2 hPa 0,0 l/m 2 min 0 min 3,1 UV-I 670 W/m 12,9 km/h (3 Bft)
09.07.2013 16:06 26,9 C 27,3 C 59 % 1023,1 hPa 0,0 l/m 2 min 0 min 3,0 UV-I 645 W/m 23,2 km/h (4 Bft)
09.07.2013 16:08 26,9 C 27,3 C 59 % 1023,1 hPa 0,0 l/m 2 min 0 min 2,9 UV-I 642 W/m 12,9 km/h (3 Bft)
09.07.2013 16:10 26,8 C 27,3 C 59 % 1023,1 hPa 0,0 l/m 2 min 0 min 3,0 UV-I 654 W/m 12,9 km/h (3 Bft)
09.07.2013 16:12 26,8 C 27,9 C 60 % 1023,2 hPa 0,0 l/m 2 min 0 min 2,9 UV-I 647 W/m 12,9 km/h (3 Bft)
09.07.2013 16:14 26,8 C 28,4 C 61 % 1023,1 hPa 0,0 l/m 2 min 0 min 2,9 UV-I 636 W/m 15,4 km/h (3 Bft)
09.07.2013 16:16 26,8 C 28,4 C 59 % 1023,1 hPa 0,0 l/m 2 min 0 min 2,9 UV-I 638 W/m 15,4 km/h (3 Bft)
09.07.2013 16:18 26,8 C 28,4 C 59 % 1023,1 hPa 0,0 l/m 2 min 0 min 2,9 UV-I 643 W/m 12,9 km/h (3 Bft)
09.07.2013 16:20 26,8 C 28,4 C 60 % 1023,1 hPa 0,0 l/m 2 min 0 min 2,9 UV-I 647 W/m 12,9 km/h (3 Bft)
09.07.2013 16:22 26,8 C 28,4 C 59 % 1023,0 hPa 0,0 l/m 2 min 0 min 2,8 UV-I 642 W/m 20,6 km/h (4 Bft)
09.07.2013 16:24 26,8 C 27,9 C 60 % 1023,0 hPa 0,0 l/m 2 min 0 min 2,8 UV-I 638 W/m 18,0 km/h (3 Bft)
09.07.2013 16:26 26,8 C 27,9 C 60 % 1023,0 hPa 0,0 l/m 2 min 0 min 2,8 UV-I 631 W/m 7,7 km/h (2 Bft)
09.07.2013 16:28 26,9 C 27,9 C 60 % 1023,0 hPa 0,0 l/m 2 min 0 min 2,7 UV-I 626 W/m 20,6 km/h (4 Bft)
09.07.2013 16:30 26,8 C 27,9 C 59 % 1023,0 hPa 0,0 l/m 2 min 0 min 2,7 UV-I 624 W/m 23,2 km/h (4 Bft)
09.07.2013 16:32 26,7 C 28,4 C 60 % 1023,0 hPa 0,0 l/m 2 min 0 min 2,7 UV-I 615 W/m 15,4 km/h (3 Bft)
09.07.2013 16:34 26,6 C 27,9 C 59 % 1022,8 hPa 0,0 l/m 2 min 0 min 2,6 UV-I 621 W/m 23,2 km/h (4 Bft)
09.07.2013 16:36 26,6 C 27,9 C 60 % 1022,9 hPa 0,0 l/m 2 min 0 min 2,5 UV-I 603 W/m 20,6 km/h (4 Bft)
09.07.2013 16:38 26,8 C 27,9 C 59 % 1022,9 hPa 0,0 l/m 2 min 0 min 2,6 UV-I 610 W/m 23,2 km/h (4 Bft)
09.07.2013 16:40 26,7 C 27,3 C 59 % 1022,9 hPa 0,0 l/m 2 min 0 min 2,5 UV-I 603 W/m 20,6 km/h (4 Bft)
09.07.2013 16:42 26,7 C 27,3 C 60 % 1022,9 hPa 0,0 l/m 2 min 0 min 2,5 UV-I 603 W/m 15,4 km/h (3 Bft)
09.07.2013 16:44 26,8 C 27,3 C 60 % 1022,9 hPa 0,0 l/m 2 min 0 min 2,4 UV-I 594 W/m 18,0 km/h (3 Bft)
09.07.2013 16:46 26,8 C 27,3 C 59 % 1022,8 hPa 0,0 l/m 2 min 0 min 2,4 UV-I 587 W/m 15,4 km/h (3 Bft)
09.07.2013 16:48 26,8 C 27,3 C 59 % 1022,9 hPa 0,0 l/m 2 min 0 min 2,4 UV-I 584 W/m 20,6 km/h (4 Bft)
09.07.2013 16:50 26,7 C 27,3 C 59 % 1022,8 hPa 0,0 l/m 2 min 0 min 2,3 UV-I 580 W/m 20,6 km/h (4 Bft)
09.07.2013 16:52 26,6 C 26,8 C 59 % 1022,8 hPa 0,0 l/m 2 min 0 min 2,3 UV-I 578 W/m 20,6 km/h (4 Bft)
09.07.2013 16:54 26,6 C 26,8 C 59 % 1022,7 hPa 0,0 l/m 2 min 0 min 2,2 UV-I 566 W/m 28,3 km/h (4 Bft)
09.07.2013 16:56 26,6 C 26,8 C 60 % 1022,7 hPa 0,0 l/m 2 min 0 min 2,2 UV-I 571 W/m 12,9 km/h (3 Bft)
09.07.2013 16:58 26,8 C 27,3 C 60 % 1022,7 hPa 0,0 l/m 2 min 0 min 2,2 UV-I 564 W/m 15,4 km/h (3 Bft)
09.07.2013 17:00 26,9 C 27,3 C 59 % 1022,7 hPa 0,0 l/m 2 min 0 min 2,1 UV-I 552 W/m 18,0 km/h (3 Bft)
09.07.2013 17:02 26,9 C 26,8 C 58 % 1022,7 hPa 0,0 l/m 2 min 0 min 2,1 UV-I 545 W/m 15,4 km/h (3 Bft)
09.07.2013 17:06 26,6 C 26,8 C 61 % 1022,6 hPa 0,0 l/m 2 min 0 min 2,0 UV-I 534 W/m 15,4 km/h (3 Bft)
09.07.2013 17:08 26,7 C 27,3 C 60 % 1022,6 hPa 0,0 l/m 2 min 0 min 2,0 UV-I 547 W/m 2,6 km/h (1 Bft)
09.07.2013 17:10 26,9 C 27,3 C 59 % 1022,6 hPa 0,0 l/m 2 min 0 min 2,0 UV-I 533 W/m 12,9 km/h (3 Bft)
09.07.2013 17:12 26,8 C 26,8 C 59 % 1022,7 hPa 0,0 l/m 2 min 0 min 2,0 UV-I 543 W/m 15,4 km/h (3 Bft)
09.07.2013 17:14 26,6 C 26,8 C 59 % 1022,6 hPa 0,0 l/m 2 min 0 min 1,9 UV-I 527 W/m 15,4 km/h (3 Bft)
09.07.2013 17:16 26,6 C 26,8 C 60 % 1022,6 hPa 0,0 l/m 2 min 0 min 1,9 UV-I 529 W/m 12,9 km/h (3 Bft)
09.07.2013 17:18 26,6 C 26,8 C 59 % 1022,6 hPa 0,0 l/m 2 min 0 min 1,9 UV-I 534 W/m 15,4 km/h (3 Bft)
09.07.2013 17:20 26,6 C 26,2 C 59 % 1022,5 hPa 0,0 l/m 2 min 0 min 1,9 UV-I 522 W/m 15,4 km/h (3 Bft)
09.07.2013 17:22 26,5 C 26,2 C 59 % 1022,5 hPa 0,0 l/m 2 min 0 min 1,8 UV-I 517 W/m 25,7 km/h (4 Bft)
09.07.2013 17:24 26,5 C 26,2 C 60 % 1022,4 hPa 0,0 l/m 2 min 0 min 1,7 UV-I 499 W/m 15,4 km/h (3 Bft)
09.07.2013 17:26 26,5 C 26,2 C 59 % 1022,6 hPa 0,0 l/m 2 min 0 min 1,7 UV-I 492 W/m 20,6 km/h (4 Bft)
09.07.2013 17:28 26,4 C 26,2 C 59 % 1022,4 hPa 0,0 l/m 2 min 0 min 1,6 UV-I 487 W/m 23,2 km/h (4 Bft)
09.07.2013 17:30 26,3 C 26,2 C 59 % 1022,3 hPa 0,0 l/m 2 min 0 min 1,6 UV-I 480 W/m 12,9 km/h (3 Bft)
09.07.2013 17:32 26,3 C 26,2 C 59 % 1022,4 hPa 0,0 l/m 2 min 0 min 1,6 UV-I 492 W/m 15,4 km/h (3 Bft)
09.07.2013 17:34 26,4 C 26,2 C 59 % 1022,4 hPa 0,0 l/m 2 min 0 min 1,6 UV-I 482 W/m 20,6 km/h (4 Bft)
09.07.2013 17:36 26,4 C 26,2 C 59 % 1022,3 hPa 0,0 l/m 2 min 0 min 1,5 UV-I 464 W/m 12,9 km/h (3 Bft)
09.07.2013 17:38 26,4 C 26,2 C 59 % 1022,2 hPa 0,0 l/m 2 min 0 min 1,5 UV-I 476 W/m 18,0 km/h (3 Bft)
09.07.2013 17:40 26,4 C 26,2 C 59 % 1022,3 hPa 0,0 l/m 2 min 0 min 1,5 UV-I 466 W/m 15,4 km/h (3 Bft)
09.07.2013 17:42 26,5 C 26,2 C 59 % 1022,3 hPa 0,0 l/m 2 min 0 min 1,4 UV-I 457 W/m 23,2 km/h (4 Bft)
09.07.2013 17:44 26,4 C 26,2 C 59 % 1022,2 hPa 0,0 l/m 2 min 0 min 1,4 UV-I 454 W/m 23,2 km/h (4 Bft)
09.07.2013 17:46 26,4 C 25,7 C 58 % 1022,2 hPa 0,0 l/m 2 min 0 min 1,4 UV-I 450 W/m 18,0 km/h (3 Bft)
09.07.2013 17:48 26,3 C 25,7 C 59 % 1022,2 hPa 0,0 l/m 2 min 0 min 1,4 UV-I 450 W/m 15,4 km/h (3 Bft)
09.07.2013 17:50 26,4 C 25,7 C 59 % 1022,2 hPa 0,0 l/m 2 min 0 min 1,4 UV-I 457 W/m 15,4 km/h (3 Bft)
09.07.2013 17:52 26,4 C 25,7 C 59 % 1022,2 hPa 0,0 l/m 2 min 0 min 1,3 UV-I 452 W/m 25,7 km/h (4 Bft)
09.07.2013 17:54 26,4 C 25,7 C 59 % 1022,2 hPa 0,0 l/m 2 min 0 min 1,3 UV-I 432 W/m 15,4 km/h (3 Bft)
09.07.2013 17:56 26,4 C 25,7 C 59 % 1022,3 hPa 0,0 l/m 2 min 0 min 1,2 UV-I 424 W/m 25,7 km/h (4 Bft)
09.07.2013 17:58 26,4 C 25,7 C 59 % 1022,2 hPa 0,0 l/m 2 min 0 min 1,2 UV-I 425 W/m 15,4 km/h (3 Bft)
09.07.2013 18:00 26,3 C 25,7 C 59 % 1022,2 hPa 0,0 l/m 2 min 0 min 1,2 UV-I 424 W/m 12,9 km/h (3 Bft)
09.07.2013 18:02 26,3 C 25,7 C 58 % 1022,2 hPa 0,0 l/m 2 min 0 min 1,2 UV-I 417 W/m 18,0 km/h (3 Bft)
09.07.2013 18:06 26,2 C 25,7 C 58 % 1022,2 hPa 0,0 l/m 2 min 0 min 1,1 UV-I 394 W/m 15,4 km/h (3 Bft)
09.07.2013 18:08 26,2 C 25,7 C 59 % 1022,1 hPa 0,0 l/m 2 min 0 min 0,9 UV-I 394 W/m 12,9 km/h (3 Bft)
09.07.2013 18:10 26,2 C 25,7 C 58 % 1022,1 hPa 0,0 l/m 2 min 0 min 1,0 UV-I 403 W/m 15,4 km/h (3 Bft)
09.07.2013 18:12 26,2 C 25,7 C 57 % 1022,1 hPa 0,0 l/m 2 min 0 min 0,9 UV-I 403 W/m 15,4 km/h (3 Bft)
09.07.2013 18:14 26,1 C 25,1 C 57 % 1022,0 hPa 0,0 l/m 2 min 0 min 0,9 UV-I 403 W/m 18,0 km/h (3 Bft)
09.07.2013 18:16 26,1 C 25,1 C 58 % 1022,0 hPa 0,0 l/m 0 min 0 min 0,9 UV-I 141 W/m 10,3 km/h (2 Bft)
09.07.2013 18:18 26,1 C 25,1 C 58 % 1022,0 hPa 0,0 l/m 0 min 0 min 0,7 UV-I 253 W/m 20,6 km/h (4 Bft)
09.07.2013 18:20 26,1 C 25,1 C 57 % 1022,0 hPa 0,0 l/m 0 min 0 min 0,8 UV-I 165 W/m 25,7 km/h (4 Bft)
09.07.2013 18:22 26,1 C 25,1 C 57 % 1022,0 hPa 0,0 l/m 0 min 0 min 0,9 UV-I 223 W/m 15,4 km/h (3 Bft)
09.07.2013 18:24 26,0 C 25,1 C 58 % 1022,0 hPa 0,0 l/m 2 min 0 min 0,9 UV-I 367 W/m 20,6 km/h (4 Bft)
09.07.2013 18:26 26,0 C 25,1 C 58 % 1022,0 hPa 0,0 l/m 2 min 0 min 0,8 UV-I 366 W/m 7,7 km/h (2 Bft)
09.07.2013 18:28 26,1 C 25,1 C 58 % 1021,9 hPa 0,0 l/m 2 min 0 min 0,8 UV-I 360 W/m 12,9 km/h (3 Bft)
09.07.2013 18:30 26,1 C 25,1 C 57 % 1021,9 hPa 0,0 l/m 2 min 0 min 0,8 UV-I 357 W/m 18,0 km/h (3 Bft)
09.07.2013 18:32 26,0 C 25,1 C 56 % 1021,9 hPa 0,0 l/m 2 min 0 min 0,8 UV-I 343 W/m 23,2 km/h (4 Bft)
09.07.2013 18:34 25,9 C 25,1 C 57 % 1022,0 hPa 0,0 l/m 2 min 0 min 0,6 UV-I 348 W/m 20,6 km/h (4 Bft)
09.07.2013 18:36 25,8 C 25,1 C 57 % 1021,9 hPa 0,0 l/m 2 min 0 min 0,5 UV-I 338 W/m 20,6 km/h (4 Bft)
09.07.2013 18:38 25,8 C 25,1 C 56 % 1021,9 hPa 0,0 l/m 0 min 0 min 0,5 UV-I 105 W/m 23,2 km/h (4 Bft)
09.07.2013 18:40 25,8 C 25,1 C 56 % 1021,9 hPa 0,0 l/m 0 min 0 min 0,5 UV-I 111 W/m 15,4 km/h (3 Bft)
09.07.2013 18:42 25,7 C 25,1 C 56 % 1022,0 hPa 0,0 l/m 2 min 0 min 0,6 UV-I 239 W/m 20,6 km/h (4 Bft)
09.07.2013 18:44 25,8 C 25,1 C 56 % 1021,8 hPa 0,0 l/m 2 min 0 min 0,0 UV-I 246 W/m 15,4 km/h (3 Bft)
09.07.2013 18:46 25,8 C 25,1 C 56 % 1021,9 hPa 0,0 l/m 2 min 0 min 0,0 UV-I 267 W/m 18,0 km/h (3 Bft)
09.07.2013 18:48 25,7 C 25,1 C 56 % 1021,8 hPa 0,0 l/m 0 min 0 min 0,0 UV-I 95 W/m 18,0 km/h (3 Bft)
09.07.2013 18:50 25,7 C 24,6 C 57 % 1021,8 hPa 0,0 l/m 0 min 0 min 0,0 UV-I 81 W/m 20,6 km/h (4 Bft)
09.07.2013 18:52 25,7 C 24,6 C 56 % 1021,8 hPa 0,0 l/m 0 min 0 min 0,0 UV-I 84 W/m 15,4 km/h (3 Bft)
09.07.2013 18:54 25,7 C 24,6 C 56 % 1021,8 hPa 0,0 l/m 0 min 0 min 0,0 UV-I 81 W/m 20,6 km/h (4 Bft)
09.07.2013 18:56 25,7 C 24,6 C 56 % 1021,8 hPa 0,0 l/m 0 min 0 min 0,0 UV-I 93 W/m 15,4 km/h (3 Bft)
09.07.2013 18:58 25,7 C 24,6 C 56 % 1021,8 hPa 0,0 l/m 0 min 0 min 0,0 UV-I 77 W/m 15,4 km/h (3 Bft)
09.07.2013 19:00 25,7 C 24,6 C 56 % 1021,7 hPa 0,0 l/m 0 min 0 min 0,0 UV-I 76 W/m 10,3 km/h (2 Bft)
09.07.2013 19:02 25,7 C 24,6 C 55 % 1021,8 hPa 0,0 l/m 0 min 0 min 0,0 UV-I 97 W/m 15,4 km/h (3 Bft)
09.07.2013 19:06 25,6 C 24,6 C 55 % 1021,7 hPa 0,0 l/m 0 min 0 min 0,0 UV-I 95 W/m 18,0 km/h (3 Bft)
09.07.2013 19:08 25,5 C 24,6 C 55 % 1021,7 hPa 0,0 l/m 0 min 0 min 0,0 UV-I 102 W/m 15,4 km/h (3 Bft)
09.07.2013 19:10 25,4 C 24,6 C 55 % 1021,7 hPa 0,0 l/m 0 min 0 min 0,0 UV-I 72 W/m 18,0 km/h (3 Bft)
09.07.2013 19:12 25,4 C 24,6 C 55 % 1021,7 hPa 0,0 l/m 0 min 0 min 0,0 UV-I 76 W/m 18,0 km/h (3 Bft)
09.07.2013 19:14 25,4 C 24,6 C 55 % 1021,6 hPa 0,0 l/m 0 min 0 min 0,0 UV-I 70 W/m 12,9 km/h (3 Bft)
09.07.2013 19:16 25,4 C 24,0 C 55 % 1021,7 hPa 0,0 l/m 0 min 0 min 0,0 UV-I 63 W/m 20,6 km/h (4 Bft)
09.07.2013 19:18 25,3 C 24,0 C 55 % 1021,6 hPa 0,0 l/m 0 min 0 min 0,0 UV-I 62 W/m 18,0 km/h (3 Bft)
09.07.2013 19:20 25,3 C 24,0 C 55 % 1021,7 hPa 0,0 l/m 0 min 0 min 0,0 UV-I 62 W/m 18,0 km/h (3 Bft)
09.07.2013 19:22 25,3 C 24,0 C 54 % 1021,6 hPa 0,0 l/m 0 min 0 min 0,0 UV-I 63 W/m 23,2 km/h (4 Bft)
09.07.2013 19:24 25,2 C 24,0 C 55 % 1021,7 hPa 0,0 l/m 0 min 0 min 0,0 UV-I 62 W/m 20,6 km/h (4 Bft)
09.07.2013 19:26 25,2 C 24,0 C 54 % 1021,6 hPa 0,0 l/m 0 min 0 min 0,0 UV-I 58 W/m 20,6 km/h (4 Bft)
09.07.2013 19:28 25,2 C 24,0 C 54 % 1021,6 hPa 0,0 l/m 0 min 0 min 0,0 UV-I 58 W/m 20,6 km/h (4 Bft)
09.07.2013 19:30 25,2 C 24,0 C 54 % 1021,7 hPa 0,0 l/m 0 min 0 min 0,0 UV-I 56 W/m 18,0 km/h (3 Bft)
09.07.2013 19:32 25,1 C 24,0 C 54 % 1021,6 hPa 0,0 l/m 0 min 0 min 0,0 UV-I 56 W/m 12,9 km/h (3 Bft)
09.07.2013 19:34 25,1 C 24,0 C 54 % 1021,6 hPa 0,0 l/m 0 min 0 min 0,0 UV-I 54 W/m 15,4 km/h (3 Bft)
09.07.2013 19:36 25,1 C 24,0 C 55 % 1021,6 hPa 0,0 l/m 0 min 0 min 0,0 UV-I 54 W/m 10,3 km/h (2 Bft)
09.07.2013 19:38 25,1 C 24,0 C 54 % 1021,6 hPa 0,0 l/m 0 min 0 min 0,0 UV-I 54 W/m 12,9 km/h (3 Bft)
09.07.2013 19:40 25,1 C 24,0 C 53 % 1021,6 hPa 0,0 l/m 0 min 0 min 0,0 UV-I 53 W/m 18,0 km/h (3 Bft)
09.07.2013 19:42 25,0 C 24,0 C 54 % 1021,6 hPa 0,0 l/m 0 min 0 min 0,0 UV-I 51 W/m 20,6 km/h (4 Bft)
09.07.2013 19:44 24,9 C 24,0 C 54 % 1021,6 hPa 0,0 l/m 0 min 0 min 0,0 UV-I 51 W/m 23,2 km/h (4 Bft)
09.07.2013 19:46 24,9 C 24,0 C 54 % 1021,7 hPa 0,0 l/m 0 min 0 min 0,0 UV-I 49 W/m 15,4 km/h (3 Bft)
09.07.2013 19:48 24,9 C 24,0 C 54 % 1021,7 hPa 0,0 l/m 0 min 0 min 0,0 UV-I 49 W/m 10,3 km/h (2 Bft)
09.07.2013 19:50 24,9 C 24,0 C 53 % 1021,7 hPa 0,0 l/m 0 min 0 min 0,0 UV-I 49 W/m 15,4 km/h (3 Bft)
09.07.2013 19:52 24,8 C 23,4 C 53 % 1021,7 hPa 0,0 l/m 0 min 0 min 0,0 UV-I 47 W/m 15,4 km/h (3 Bft)
09.07.2013 19:54 24,8 C 23,4 C 53 % 1021,7 hPa 0,0 l/m 0 min 0 min 0,0 UV-I 47 W/m 23,2 km/h (4 Bft)
09.07.2013 19:56 24,8 C 23,4 C 52 % 1021,6 hPa 0,0 l/m 0 min 0 min 0,0 UV-I 46 W/m 23,2 km/h (4 Bft)
09.07.2013 19:58 24,8 C 23,4 C 53 % 1021,7 hPa 0,0 l/m 0 min 0 min 0,0 UV-I 46 W/m 15,4 km/h (3 Bft)
09.07.2013 20:00 24,7 C 23,4 C 52 % 1021,6 hPa 0,0 l/m 0 min 0 min 0,0 UV-I 44 W/m 12,9 km/h (3 Bft)
09.07.2013 20:02 24,7 C 23,4 C 53 % 1021,7 hPa 0,0 l/m 0 min 0 min 0,0 UV-I 44 W/m 12,9 km/h (3 Bft)
09.07.2013 20:06 24,6 C 23,4 C 53 % 1021,7 hPa 0,0 l/m 0 min 0 min 0,0 UV-I 42 W/m 20,6 km/h (4 Bft)
09.07.2013 20:08 24,6 C 23,4 C 53 % 1021,8 hPa 0,0 l/m 0 min 0 min 0,0 UV-I 42 W/m 7,7 km/h (2 Bft)
09.07.2013 20:10 24,5 C 23,4 C 53 % 1021,7 hPa 0,0 l/m 0 min 0 min 0,0 UV-I 42 W/m 12,9 km/h (3 Bft)
09.07.2013 20:12 24,4 C 22,9 C 54 % 1021,7 hPa 0,0 l/m 0 min 0 min 0,0 UV-I 40 W/m 15,4 km/h (3 Bft)
09.07.2013 20:14 24,4 C 22,9 C 54 % 1021,7 hPa 0,0 l/m 0 min 0 min 0,0 UV-I 40 W/m 12,9 km/h (3 Bft)
09.07.2013 20:16 24,4 C 22,9 C 54 % 1021,8 hPa 0,0 l/m 0 min 0 min 0,0 UV-I 39 W/m 10,3 km/h (2 Bft)
09.07.2013 20:18 24,3 C 22,9 C 54 % 1021,8 hPa 0,0 l/m 0 min 0 min 0,0 UV-I 39 W/m 15,4 km/h (3 Bft)
09.07.2013 20:20 24,3 C 22,9 C 53 % 1021,8 hPa 0,0 l/m 0 min 0 min 0,0 UV-I 39 W/m 20,6 km/h (4 Bft)
09.07.2013 20:22 24,3 C 22,9 C 54 % 1021,8 hPa 0,0 l/m 0 min 0 min 0,0 UV-I 37 W/m 10,3 km/h (2 Bft)
09.07.2013 20:24 24,2 C 22,9 C 53 % 1021,9 hPa 0,0 l/m 0 min 0 min 0,0 UV-I 37 W/m 15,4 km/h (3 Bft)
09.07.2013 20:26 24,2 C 22,9 C 53 % 1021,8 hPa 0,0 l/m 0 min 0 min 0,0 UV-I 37 W/m 10,3 km/h (2 Bft)
09.07.2013 20:28 24,2 C 22,9 C 53 % 1021,8 hPa 0,0 l/m 0 min 0 min 0,0 UV-I 35 W/m 23,2 km/h (4 Bft)
09.07.2013 20:30 24,1 C 22,9 C 53 % 1021,9 hPa 0,0 l/m 0 min 0 min 0,0 UV-I 35 W/m 20,6 km/h (4 Bft)
09.07.2013 20:32 24,1 C 22,9 C 53 % 1021,9 hPa 0,0 l/m 0 min 0 min 0,0 UV-I 33 W/m 15,4 km/h (3 Bft)
09.07.2013 20:34 24,0 C 22,9 C 53 % 1021,9 hPa 0,0 l/m 0 min 0 min 0,0 UV-I 33 W/m 15,4 km/h (3 Bft)
09.07.2013 20:36 23,9 C 22,9 C 53 % 1021,9 hPa 0,0 l/m 0 min 0 min 0,0 UV-I 32 W/m 15,4 km/h (3 Bft)
09.07.2013 20:38 23,9 C 22,3 C 54 % 1021,9 hPa 0,0 l/m 0 min 0 min 0,0 UV-I 32 W/m 12,9 km/h (3 Bft)
09.07.2013 20:40 23,8 C 22,3 C 54 % 1022,0 hPa 0,0 l/m 0 min 0 min 0,0 UV-I 30 W/m 12,9 km/h (3 Bft)
09.07.2013 20:42 23,8 C 22,3 C 54 % 1021,9 hPa 0,0 l/m 0 min 0 min 0,0 UV-I 30 W/m 15,4 km/h (3 Bft)
09.07.2013 20:44 23,7 C 22,3 C 54 % 1021,9 hPa 0,0 l/m 0 min 0 min 0,0 UV-I 28 W/m 20,6 km/h (4 Bft)
09.07.2013 20:46 23,7 C 22,3 C 54 % 1021,9 hPa 0,0 l/m 0 min 0 min 0,0 UV-I 26 W/m 12,9 km/h (3 Bft)
09.07.2013 20:48 23,6 C 22,3 C 54 % 1021,9 hPa 0,0 l/m 0 min 0 min 0,0 UV-I 26 W/m 15,4 km/h (3 Bft)
09.07.2013 20:50 23,6 C 22,3 C 54 % 1021,8 hPa 0,0 l/m 0 min 0 min 0,0 UV-I 25 W/m 12,9 km/h (3 Bft)
09.07.2013 20:52 23,6 C 22,3 C 54 % 1021,9 hPa 0,0 l/m 0 min 0 min 0,0 UV-I 25 W/m 10,3 km/h (2 Bft)
09.07.2013 20:54 23,6 C 22,3 C 55 % 1021,9 hPa 0,0 l/m 0 min 0 min 0,0 UV-I 23 W/m 12,9 km/h (3 Bft)
09.07.2013 20:56 23,5 C 21,8 C 55 % 1021,9 hPa 0,0 l/m 0 min 0 min 0,0 UV-I 21 W/m 10,3 km/h (2 Bft)
09.07.2013 20:58 23,5 C 21,8 C 55 % 1021,9 hPa 0,0 l/m 0 min 0 min 0,0 UV-I 21 W/m 10,3 km/h (2 Bft)
09.07.2013 21:00 23,4 C 21,8 C 55 % 1021,9 hPa 0,0 l/m 0 min 0 min 0,0 UV-I 19 W/m 12,9 km/h (3 Bft)
09.07.2013 21:02 23,4 C 21,8 C 55 % 1021,9 hPa 0,0 l/m 0 min 0 min 0,0 UV-I 19 W/m 7,7 km/h (2 Bft)
09.07.2013 21:06 23,3 C 21,8 C 55 % 1021,9 hPa 0,0 l/m 0 min 0 min 0,0 UV-I 18 W/m 10,3 km/h (2 Bft)
09.07.2013 21:08 23,3 C 21,8 C 55 % 1021,9 hPa 0,0 l/m 0 min 0 min 0,0 UV-I 18 W/m 7,7 km/h (2 Bft)
09.07.2013 21:10 23,3 C 21,2 C 56 % 1021,9 hPa 0,0 l/m 0 min 0 min 0,0 UV-I 18 W/m 7,7 km/h (2 Bft)
09.07.2013 21:12 23,2 C 21,2 C 56 % 1021,9 hPa 0,0 l/m 0 min 0 min 0,0 UV-I 16 W/m 2,6 km/h (1 Bft)
09.07.2013 21:14 23,2 C 21,2 C 56 % 1021,9 hPa 0,0 l/m 0 min 0 min 0,0 UV-I 16 W/m 5,1 km/h (1 Bft)
09.07.2013 21:16 23,1 C 21,2 C 56 % 1021,9 hPa 0,0 l/m 0 min 0 min 0,0 UV-I 14 W/m 7,7 km/h (2 Bft)
09.07.2013 21:18 23,1 C 21,2 C 56 % 1021,8 hPa 0,0 l/m 0 min 0 min 0,0 UV-I 14 W/m 7,7 km/h (2 Bft)
09.07.2013 21:20 23,0 C 21,2 C 56 % 1021,9 hPa 0,0 l/m 0 min 0 min 0,0 UV-I 14 W/m 2,6 km/h (1 Bft)
09.07.2013 21:22 23,0 C 20,7 C 56 % 1021,9 hPa 0,0 l/m 0 min 0 min 0,0 UV-I 12 W/m 2,6 km/h (1 Bft)
09.07.2013 21:24 22,9 C 20,7 C 56 % 1021,9 hPa 0,0 l/m 0 min 0 min 0,0 UV-I 12 W/m 2,6 km/h (1 Bft)
09.07.2013 21:26 22,8 C 20,7 C 57 % 1021,9 hPa 0,0 l/m 0 min 0 min 0,0 UV-I 11 W/m 0,0 km/h (0 Bft)
09.07.2013 21:28 22,8 C 20,7 C 57 % 1021,9 hPa 0,0 l/m 0 min 0 min 0,0 UV-I 11 W/m 2,6 km/h (1 Bft)
09.07.2013 21:30 22,7 C 20,7 C 57 % 1021,9 hPa 0,0 l/m 0 min 0 min 0,0 UV-I 11 W/m 0,0 km/h (0 Bft)
09.07.2013 21:32 22,7 C 20,7 C 57 % 1021,9 hPa 0,0 l/m 0 min 0 min 0,0 UV-I 9 W/m 0,0 km/h (0 Bft)
09.07.2013 21:34 22,6 C 20,1 C 57 % 1021,9 hPa 0,0 l/m 0 min 0 min 0,0 UV-I 9 W/m 0,0 km/h (0 Bft)
09.07.2013 21:36 22,6 C 20,1 C 57 % 1022,0 hPa 0,0 l/m 0 min 0 min 0,0 UV-I 7 W/m 0,0 km/h (0 Bft)
09.07.2013 21:38 22,5 C 20,1 C 57 % 1022,0 hPa 0,0 l/m 0 min 0 min 0,0 UV-I 7 W/m 0,0 km/h (0 Bft)
09.07.2013 21:40 22,4 C 20,1 C 57 % 1022,0 hPa 0,0 l/m 0 min 0 min 0,0 UV-I 5 W/m 0,0 km/h (0 Bft)
09.07.2013 21:42 22,4 C 20,1 C 58 % 1022,0 hPa 0,0 l/m 0 min 0 min 0,0 UV-I 5 W/m 0,0 km/h (0 Bft)
09.07.2013 21:44 22,4 C 20,1 C 58 % 1022,0 hPa 0,0 l/m 0 min 0 min 0,0 UV-I 5 W/m 2,6 km/h (1 Bft)
09.07.2013 21:46 22,3 C 20,1 C 58 % 1022,0 hPa 0,0 l/m 0 min 0 min 0,0 UV-I 5 W/m 0,0 km/h (0 Bft)
09.07.2013 21:48 22,3 C 20,1 C 58 % 1022,0 hPa 0,0 l/m 0 min 0 min 0,0 UV-I 5 W/m 0,0 km/h (0 Bft)
09.07.2013 21:50 22,2 C 19,6 C 59 % 1022,0 hPa 0,0 l/m 0 min 0 min 0,0 UV-I 0 W/m 2,6 km/h (1 Bft)
09.07.2013 21:52 22,1 C 19,6 C 59 % 1022,0 hPa 0,0 l/m 0 min 0 min 0,0 UV-I 0 W/m 0,0 km/h (0 Bft)
09.07.2013 21:54 22,1 C 19,6 C 59 % 1022,0 hPa 0,0 l/m 0 min 0 min 0,0 UV-I 0 W/m 0,0 km/h (0 Bft)
09.07.2013 21:56 22,1 C 19,6 C 59 % 1022,0 hPa 0,0 l/m 0 min 0 min 0,0 UV-I 0 W/m 0,0 km/h (0 Bft)
09.07.2013 21:58 21,9 C 19,6 C 59 % 1022,0 hPa 0,0 l/m 0 min 0 min 0,0 UV-I 0 W/m 2,6 km/h (1 Bft)
09.07.2013 22:00 21,9 C 19,6 C 59 % 1022,0 hPa 0,0 l/m 0 min 0 min 0,0 UV-I 0 W/m 0,0 km/h (0 Bft)
09.07.2013 22:02 21,8 C 19,6 C 60 % 1022,1 hPa 0,0 l/m 0 min 0 min 0,0 UV-I 0 W/m 0,0 km/h (0 Bft)
09.07.2013 22:06 21,7 C 19,0 C 60 % 1022,2 hPa 0,0 l/m 0 min 0 min 0,0 UV-I 0 W/m 0,0 km/h (0 Bft)
09.07.2013 22:08 21,7 C 18,4 C 60 % 1022,2 hPa 0,0 l/m 0 min 0 min 0,0 UV-I 0 W/m 0,0 km/h (0 Bft)
09.07.2013 22:10 21,6 C 18,4 C 61 % 1022,2 hPa 0,0 l/m 0 min 0 min 0,0 UV-I 0 W/m 0,0 km/h (0 Bft)
09.07.2013 22:12 21,6 C 17,9 C 61 % 1022,2 hPa 0,0 l/m 0 min 0 min 0,0 UV-I 0 W/m 0,0 km/h (0 Bft)
09.07.2013 22:14 21,5 C 17,9 C 61 % 1022,2 hPa 0,0 l/m 0 min 0 min 0,0 UV-I 0 W/m 0,0 km/h (0 Bft)
09.07.2013 22:16 21,4 C 17,9 C 62 % 1022,2 hPa 0,0 l/m 0 min 0 min 0,0 UV-I 0 W/m 0,0 km/h (0 Bft)
09.07.2013 22:18 21,4 C 17,9 C 62 % 1022,3 hPa 0,0 l/m 0 min 0 min 0,0 UV-I 0 W/m 0,0 km/h (0 Bft)
09.07.2013 22:20 21,3 C 17,9 C 62 % 1022,3 hPa 0,0 l/m 0 min 0 min 0,0 UV-I 0 W/m 0,0 km/h (0 Bft)
09.07.2013 22:22 21,2 C 17,9 C 62 % 1022,2 hPa 0,0 l/m 0 min 0 min 0,0 UV-I 0 W/m 0,0 km/h (0 Bft)
09.07.2013 22:24 21,2 C 17,9 C 62 % 1022,2 hPa 0,0 l/m 0 min 0 min 0,0 UV-I 0 W/m 0,0 km/h (0 Bft)
09.07.2013 22:26 21,1 C 17,9 C 62 % 1022,2 hPa 0,0 l/m 0 min 0 min 0,0 UV-I 0 W/m 0,0 km/h (0 Bft)
09.07.2013 22:28 21,0 C 17,9 C 62 % 1022,1 hPa 0,0 l/m 0 min 0 min 0,0 UV-I 0 W/m 0,0 km/h (0 Bft)
09.07.2013 22:30 20,9 C 17,3 C 63 % 1022,2 hPa 0,0 l/m 0 min 0 min 0,0 UV-I 0 W/m 0,0 km/h (0 Bft)
09.07.2013 22:32 20,8 C 17,3 C 63 % 1022,3 hPa 0,0 l/m 0 min 0 min 0,0 UV-I 0 W/m 0,0 km/h (0 Bft)
09.07.2013 22:34 20,8 C 17,3 C 63 % 1022,4 hPa 0,0 l/m 0 min 0 min 0,0 UV-I 0 W/m 0,0 km/h (0 Bft)
09.07.2013 22:36 20,7 C 17,3 C 63 % 1022,4 hPa 0,0 l/m 0 min 0 min 0,0 UV-I 0 W/m 2,6 km/h (1 Bft)
09.07.2013 22:38 20,7 C 16,8 C 63 % 1022,4 hPa 0,0 l/m 0 min 0 min 0,0 UV-I 0 W/m 0,0 km/h (0 Bft)
09.07.2013 22:40 20,6 C 16,8 C 64 % 1022,4 hPa 0,0 l/m 0 min 0 min 0,0 UV-I 0 W/m 0,0 km/h (0 Bft)
09.07.2013 22:42 20,5 C 16,8 C 64 % 1022,4 hPa 0,0 l/m 0 min 0 min 0,0 UV-I 0 W/m 0,0 km/h (0 Bft)
09.07.2013 22:44 20,4 C 16,8 C 64 % 1022,3 hPa 0,0 l/m 0 min 0 min 0,0 UV-I 0 W/m 0,0 km/h (0 Bft)
09.07.2013 22:46 20,3 C 16,8 C 65 % 1022,2 hPa 0,0 l/m 0 min 0 min 0,0 UV-I 0 W/m 0,0 km/h (0 Bft)
09.07.2013 22:48 20,3 C 16,8 C 65 % 1022,3 hPa 0,0 l/m 0 min 0 min 0,0 UV-I 0 W/m 0,0 km/h (0 Bft)
09.07.2013 22:50 20,2 C 16,8 C 65 % 1022,3 hPa 0,0 l/m 0 min 0 min 0,0 UV-I 0 W/m 0,0 km/h (0 Bft)
09.07.2013 22:52 20,1 C 16,8 C 65 % 1022,4 hPa 0,0 l/m 0 min 0 min 0,0 UV-I 0 W/m 0,0 km/h (0 Bft)
09.07.2013 22:54 20,1 C 16,8 C 66 % 1022,4 hPa 0,0 l/m 0 min 0 min 0,0 UV-I 0 W/m 0,0 km/h (0 Bft)
09.07.2013 22:56 20,0 C 16,2 C 66 % 1022,4 hPa 0,0 l/m 0 min 0 min 0,0 UV-I 0 W/m 0,0 km/h (0 Bft)
09.07.2013 22:58 19,9 C 16,2 C 66 % 1022,4 hPa 0,0 l/m 0 min 0 min 0,0 UV-I 0 W/m 0,0 km/h (0 Bft)
09.07.2013 23:00 19,8 C 16,2 C 67 % 1022,4 hPa 0,0 l/m 0 min 0 min 0,0 UV-I 0 W/m 0,0 km/h (0 Bft)
09.07.2013 23:02 19,8 C 16,2 C 67 % 1022,4 hPa 0,0 l/m 0 min 0 min 0,0 UV-I 0 W/m 0,0 km/h (0 Bft)
09.07.2013 23:06 19,7 C 16,2 C 67 % 1022,5 hPa 0,0 l/m 0 min 0 min 0,0 UV-I 0 W/m 0,0 km/h (0 Bft)
09.07.2013 23:08 19,6 C 16,2 C 67 % 1022,5 hPa 0,0 l/m 0 min 0 min 0,0 UV-I 0 W/m 0,0 km/h (0 Bft)
09.07.2013 23:10 19,6 C 16,2 C 68 % 1022,4 hPa 0,0 l/m 0 min 0 min 0,0 UV-I 0 W/m 0,0 km/h (0 Bft)
09.07.2013 23:12 19,4 C 16,2 C 68 % 1022,5 hPa 0,0 l/m 0 min 0 min 0,0 UV-I 0 W/m 0,0 km/h (0 Bft)
09.07.2013 23:14 19,4 C 16,2 C 68 % 1022,5 hPa 0,0 l/m 0 min 0 min 0,0 UV-I 0 W/m 0,0 km/h (0 Bft)
09.07.2013 23:16 19,3 C 15,7 C 68 % 1022,5 hPa 0,0 l/m 0 min 0 min 0,0 UV-I 0 W/m 0,0 km/h (0 Bft)
09.07.2013 23:18 19,3 C 15,7 C 68 % 1022,4 hPa 0,0 l/m 0 min 0 min 0,0 UV-I 0 W/m 0,0 km/h (0 Bft)
09.07.2013 23:20 19,2 C 15,7 C 68 % 1022,4 hPa 0,0 l/m 0 min 0 min 0,0 UV-I 0 W/m 0,0 km/h (0 Bft)
09.07.2013 23:22 19,2 C 15,7 C 68 % 1022,4 hPa 0,0 l/m 0 min 0 min 0,0 UV-I 0 W/m 0,0 km/h (0 Bft)
09.07.2013 23:24 19,1 C 15,7 C 68 % 1022,5 hPa 0,0 l/m 0 min 0 min 0,0 UV-I 0 W/m 0,0 km/h (0 Bft)
09.07.2013 23:26 19,1 C 15,7 C 69 % 1022,4 hPa 0,0 l/m 0 min 0 min 0,0 UV-I 0 W/m 0,0 km/h (0 Bft)
09.07.2013 23:28 19,0 C 15,7 C 69 % 1022,4 hPa 0,0 l/m 0 min 0 min 0,0 UV-I 0 W/m 0,0 km/h (0 Bft)
09.07.2013 23:30 18,9 C 15,7 C 69 % 1022,4 hPa 0,0 l/m 0 min 0 min 0,0 UV-I 0 W/m 0,0 km/h (0 Bft)
09.07.2013 23:32 18,9 C 15,7 C 70 % 1022,4 hPa 0,0 l/m 0 min 0 min 0,0 UV-I 0 W/m 0,0 km/h (0 Bft)
09.07.2013 23:34 18,8 C 15,7 C 70 % 1022,5 hPa 0,0 l/m 0 min 0 min 0,0 UV-I 0 W/m 0,0 km/h (0 Bft)
09.07.2013 23:36 18,8 C 15,7 C 70 % 1022,5 hPa 0,0 l/m 0 min 0 min 0,0 UV-I 0 W/m 0,0 km/h (0 Bft)
09.07.2013 23:38 18,7 C 15,7 C 70 % 1022,5 hPa 0,0 l/m 0 min 0 min 0,0 UV-I 0 W/m 0,0 km/h (0 Bft)
09.07.2013 23:40 18,7 C 15,7 C 70 % 1022,5 hPa 0,0 l/m 0 min 0 min 0,0 UV-I 0 W/m 0,0 km/h (0 Bft)
09.07.2013 23:42 18,7 C 15,7 C 70 % 1022,4 hPa 0,0 l/m 0 min 0 min 0,0 UV-I 0 W/m 0,0 km/h (0 Bft)
09.07.2013 23:44 18,6 C 15,7 C 71 % 1022,4 hPa 0,0 l/m 0 min 0 min 0,0 UV-I 0 W/m 0,0 km/h (0 Bft)
09.07.2013 23:46 18,6 C 15,7 C 71 % 1022,5 hPa 0,0 l/m 0 min 0 min 0,0 UV-I 0 W/m 0,0 km/h (0 Bft)
09.07.2013 23:48 18,5 C 15,7 C 71 % 1022,4 hPa 0,0 l/m 0 min 0 min 0,0 UV-I 0 W/m 0,0 km/h (0 Bft)
09.07.2013 23:50 18,4 C 15,7 C 71 % 1022,4 hPa 0,0 l/m 0 min 0 min 0,0 UV-I 0 W/m 0,0 km/h (0 Bft)
09.07.2013 23:52 18,4 C 15,1 C 71 % 1022,4 hPa 0,0 l/m 0 min 0 min 0,0 UV-I 0 W/m 0,0 km/h (0 Bft)
09.07.2013 23:54 18,4 C 15,1 C 71 % 1022,4 hPa 0,0 l/m 0 min 0 min 0,0 UV-I 0 W/m 0,0 km/h (0 Bft)
09.07.2013 23:56 18,3 C 15,7 C 72 % 1022,4 hPa 0,0 l/m 0 min 0 min 0,0 UV-I 0 W/m 0,0 km/h (0 Bft)
09.07.2013 23:58 18,3 C 15,1 C 72 % 1022,4 hPa 0,0 l/m 0 min 0 min 0,0 UV-I 0 W/m 0,0 km/h (0 Bft)
_ Min-Zeit 06:20 05:30 19:56 19:14 - - - - - 00:16
Minimum _ 14,3 C 12,9 C 52 % 1021,6 hPa - - - - - 0,0 km/h (0 Bft)
_ Max-Zeit 15:16 12:56 02:26 00:40 00:00 07:58 00:00 14:00 13:34 15:06
Maximum _ 27,1 C 32,3 C 82 % 1028,0 hPa 0,0 l/m 2 min 0 min 4,5 UV-I 805 W/m 28,3 km/h
N (4 Bft)
Durchschnitt _ 21,0 C 21,0 C 68 % 1024,9 hPa #0,0 l/m #10:16 h #0 min. 2,6 UV-I 409 W/m 8,6 km/h (2 Bft)
© 2013 W. Hausmann